<?xml version='1.0' encoding='UTF-8'?>
<gpx version="1.1" creator="https://www.komoot.de" xmlns="http://www.topografix.com/GPX/1/1" xmlns:xsi="http://www.w3.org/2001/XMLSchema-instance" xsi:schemaLocation="http://www.topografix.com/GPX/1/1 http://www.topografix.com/GPX/1/1/gpx.xsd">
  <metadata>
    <name>30_620Breitfeld</name>
    <author>
      <link href="https://www.komoot.de">
        <text>komoot</text>
        <type>text/html</type>
      </link>
    </author>
  </metadata>
  <trk>
    <name>30_620Breitfeld</name>
    <trkseg>
      <trkpt lat="47.541445" lon="7.870260">
        <ele>339.320134</ele>
        <time>2021-07-31T18:03:37.692Z</time>
      </trkpt>
      <trkpt lat="47.541521" lon="7.870517">
        <ele>339.320134</ele>
        <time>2021-07-31T18:03:40.134Z</time>
      </trkpt>
      <trkpt lat="47.541606" lon="7.870424">
        <ele>339.320134</ele>
        <time>2021-07-31T18:03:41.872Z</time>
      </trkpt>
      <trkpt lat="47.541910" lon="7.870106">
        <ele>339.320134</ele>
        <time>2021-07-31T18:03:47.298Z</time>
      </trkpt>
      <trkpt lat="47.542014" lon="7.870126">
        <ele>339.320134</ele>
        <time>2021-07-31T18:03:48.788Z</time>
      </trkpt>
      <trkpt lat="47.542118" lon="7.870135">
        <ele>339.320134</ele>
        <time>2021-07-31T18:03:50.236Z</time>
      </trkpt>
      <trkpt lat="47.542181" lon="7.870131">
        <ele>339.271802</ele>
        <time>2021-07-31T18:03:51.061Z</time>
      </trkpt>
      <trkpt lat="47.542317" lon="7.870012">
        <ele>339.081026</ele>
        <time>2021-07-31T18:03:53.272Z</time>
      </trkpt>
      <trkpt lat="47.542348" lon="7.869983">
        <ele>339.036744</ele>
        <time>2021-07-31T18:03:53.702Z</time>
      </trkpt>
      <trkpt lat="47.542329" lon="7.869820">
        <ele>338.901879</ele>
        <time>2021-07-31T18:03:55.199Z</time>
      </trkpt>
      <trkpt lat="47.542372" lon="7.869746">
        <ele>338.822271</ele>
        <time>2021-07-31T18:03:55.997Z</time>
      </trkpt>
      <trkpt lat="47.542657" lon="7.869354">
        <ele>338.352549</ele>
        <time>2021-07-31T18:04:00.673Z</time>
      </trkpt>
      <trkpt lat="47.542696" lon="7.869257">
        <ele>338.260498</ele>
        <time>2021-07-31T18:04:01.600Z</time>
      </trkpt>
      <trkpt lat="47.542722" lon="7.869201">
        <ele>338.205083</ele>
        <time>2021-07-31T18:04:02.187Z</time>
      </trkpt>
      <trkpt lat="47.543049" lon="7.868759">
        <ele>337.670431</ele>
        <time>2021-07-31T18:04:07.108Z</time>
      </trkpt>
      <trkpt lat="47.543105" lon="7.868711">
        <ele>337.592288</ele>
        <time>2021-07-31T18:04:07.851Z</time>
      </trkpt>
      <trkpt lat="47.543201" lon="7.868657">
        <ele>337.468261</ele>
        <time>2021-07-31T18:04:08.930Z</time>
      </trkpt>
      <trkpt lat="47.543657" lon="7.868359">
        <ele>336.872878</ele>
        <time>2021-07-31T18:04:14.719Z</time>
      </trkpt>
      <trkpt lat="47.543801" lon="7.868269">
        <ele>336.688526</ele>
        <time>2021-07-31T18:04:17.208Z</time>
      </trkpt>
      <trkpt lat="47.543990" lon="7.868141">
        <ele>336.443401</ele>
        <time>2021-07-31T18:04:20.801Z</time>
      </trkpt>
      <trkpt lat="47.544214" lon="7.867988">
        <ele>336.152452</ele>
        <time>2021-07-31T18:04:24.840Z</time>
      </trkpt>
      <trkpt lat="47.544246" lon="7.867967">
        <ele>336.111169</ele>
        <time>2021-07-31T18:04:25.432Z</time>
      </trkpt>
      <trkpt lat="47.544410" lon="7.867825">
        <ele>335.887106</ele>
        <time>2021-07-31T18:04:28.691Z</time>
      </trkpt>
      <trkpt lat="47.544469" lon="7.867776">
        <ele>335.807323</ele>
        <time>2021-07-31T18:04:29.714Z</time>
      </trkpt>
      <trkpt lat="47.544568" lon="7.867693">
        <ele>335.673145</ele>
        <time>2021-07-31T18:04:31.637Z</time>
      </trkpt>
      <trkpt lat="47.545003" lon="7.867278">
        <ele>335.062855</ele>
        <time>2021-07-31T18:04:40.494Z</time>
      </trkpt>
      <trkpt lat="47.545160" lon="7.866985">
        <ele>335.274265</ele>
        <time>2021-07-31T18:04:45.140Z</time>
      </trkpt>
      <trkpt lat="47.545240" lon="7.866887">
        <ele>335.390603</ele>
        <time>2021-07-31T18:04:47.432Z</time>
      </trkpt>
      <trkpt lat="47.546096" lon="7.866147">
        <ele>336.501316</ele>
        <time>2021-07-31T18:05:12.546Z</time>
      </trkpt>
      <trkpt lat="47.546327" lon="7.865959">
        <ele>336.796692</ele>
        <time>2021-07-31T18:05:20.288Z</time>
      </trkpt>
      <trkpt lat="47.546510" lon="7.865766">
        <ele>337.053246</ele>
        <time>2021-07-31T18:05:27.391Z</time>
      </trkpt>
      <trkpt lat="47.546819" lon="7.865489">
        <ele>337.755539</ele>
        <time>2021-07-31T18:05:37.628Z</time>
      </trkpt>
      <trkpt lat="47.546889" lon="7.865225">
        <ele>338.127823</ele>
        <time>2021-07-31T18:05:42.836Z</time>
      </trkpt>
      <trkpt lat="47.546894" lon="7.864837">
        <ele>338.637177</ele>
        <time>2021-07-31T18:05:50.274Z</time>
      </trkpt>
      <trkpt lat="47.546885" lon="7.864500">
        <ele>339.079845</ele>
        <time>2021-07-31T18:05:57.083Z</time>
      </trkpt>
      <trkpt lat="47.546877" lon="7.864345">
        <ele>339.283881</ele>
        <time>2021-07-31T18:05:59.978Z</time>
      </trkpt>
      <trkpt lat="47.546592" lon="7.863006">
        <ele>340.712012</ele>
        <time>2021-07-31T18:06:26.056Z</time>
      </trkpt>
      <trkpt lat="47.546526" lon="7.861665">
        <ele>341.230700</ele>
        <time>2021-07-31T18:06:46.828Z</time>
      </trkpt>
      <trkpt lat="47.546487" lon="7.859119">
        <ele>341.192014</ele>
        <time>2021-07-31T18:07:19.544Z</time>
      </trkpt>
      <trkpt lat="47.546537" lon="7.857497">
        <ele>340.862315</ele>
        <time>2021-07-31T18:07:40.620Z</time>
      </trkpt>
      <trkpt lat="47.546582" lon="7.856413">
        <ele>340.677784</ele>
        <time>2021-07-31T18:07:55.019Z</time>
      </trkpt>
      <trkpt lat="47.546945" lon="7.851719">
        <ele>339.200507</ele>
        <time>2021-07-31T18:08:56.253Z</time>
      </trkpt>
      <trkpt lat="47.547141" lon="7.850355">
        <ele>338.193663</ele>
        <time>2021-07-31T18:09:11.866Z</time>
      </trkpt>
      <trkpt lat="47.547143" lon="7.849985">
        <ele>337.793533</ele>
        <time>2021-07-31T18:09:15.787Z</time>
      </trkpt>
      <trkpt lat="47.547124" lon="7.848795">
        <ele>336.194990</ele>
        <time>2021-07-31T18:09:28.427Z</time>
      </trkpt>
      <trkpt lat="47.547274" lon="7.845536">
        <ele>332.249975</ele>
        <time>2021-07-31T18:10:03.300Z</time>
      </trkpt>
      <trkpt lat="47.547295" lon="7.844722">
        <ele>331.577558</ele>
        <time>2021-07-31T18:10:12.813Z</time>
      </trkpt>
      <trkpt lat="47.547313" lon="7.843735">
        <ele>331.999629</ele>
        <time>2021-07-31T18:10:25.474Z</time>
      </trkpt>
      <trkpt lat="47.547354" lon="7.842839">
        <ele>332.383525</ele>
        <time>2021-07-31T18:10:39.922Z</time>
      </trkpt>
      <trkpt lat="47.547448" lon="7.842262">
        <ele>332.637260</ele>
        <time>2021-07-31T18:10:51.211Z</time>
      </trkpt>
      <trkpt lat="47.547314" lon="7.842270">
        <ele>333.108836</ele>
        <time>2021-07-31T18:10:55.155Z</time>
      </trkpt>
      <trkpt lat="47.547314" lon="7.842270">
        <ele>333.108836</ele>
        <time>2021-07-31T18:10:55.208Z</time>
      </trkpt>
      <trkpt lat="47.546951" lon="7.842267">
        <ele>334.568030</ele>
        <time>2021-07-31T18:11:06.581Z</time>
      </trkpt>
      <trkpt lat="47.546843" lon="7.842270">
        <ele>335.002240</ele>
        <time>2021-07-31T18:11:09.566Z</time>
      </trkpt>
      <trkpt lat="47.545011" lon="7.842239">
        <ele>344.081583</ele>
        <time>2021-07-31T18:12:11.941Z</time>
      </trkpt>
      <trkpt lat="47.544939" lon="7.842229">
        <ele>344.572700</ele>
        <time>2021-07-31T18:12:15.452Z</time>
      </trkpt>
      <trkpt lat="47.544480" lon="7.842116">
        <ele>347.732646</ele>
        <time>2021-07-31T18:12:34.053Z</time>
      </trkpt>
      <trkpt lat="47.543343" lon="7.841595">
        <ele>358.465631</ele>
        <time>2021-07-31T18:13:33.627Z</time>
      </trkpt>
      <trkpt lat="47.543032" lon="7.841467">
        <ele>362.219409</ele>
        <time>2021-07-31T18:13:52.653Z</time>
      </trkpt>
      <trkpt lat="47.542890" lon="7.841434">
        <ele>363.891001</ele>
        <time>2021-07-31T18:14:02.353Z</time>
      </trkpt>
      <trkpt lat="47.542795" lon="7.841432">
        <ele>364.995918</ele>
        <time>2021-07-31T18:14:08.520Z</time>
      </trkpt>
      <trkpt lat="47.542781" lon="7.841430">
        <ele>365.159487</ele>
        <time>2021-07-31T18:14:09.601Z</time>
      </trkpt>
      <trkpt lat="47.542339" lon="7.841424">
        <ele>370.299959</ele>
        <time>2021-07-31T18:14:39.564Z</time>
      </trkpt>
      <trkpt lat="47.542339" lon="7.841424">
        <ele>370.299959</ele>
        <time>2021-07-31T18:14:39.572Z</time>
      </trkpt>
      <trkpt lat="47.542339" lon="7.841424">
        <ele>370.299959</ele>
        <time>2021-07-31T18:14:39.622Z</time>
      </trkpt>
      <trkpt lat="47.542097" lon="7.841420">
        <ele>373.128602</ele>
        <time>2021-07-31T18:14:57.750Z</time>
      </trkpt>
      <trkpt lat="47.541583" lon="7.841568">
        <ele>380.060918</ele>
        <time>2021-07-31T18:15:35.277Z</time>
      </trkpt>
      <trkpt lat="47.541483" lon="7.841624">
        <ele>381.476281</ele>
        <time>2021-07-31T18:15:42.875Z</time>
      </trkpt>
      <trkpt lat="47.541409" lon="7.841671">
        <ele>382.542235</ele>
        <time>2021-07-31T18:15:49.006Z</time>
      </trkpt>
      <trkpt lat="47.541351" lon="7.841740">
        <ele>383.527076</ele>
        <time>2021-07-31T18:15:54.297Z</time>
      </trkpt>
      <trkpt lat="47.541050" lon="7.841906">
        <ele>387.779287</ele>
        <time>2021-07-31T18:16:15.863Z</time>
      </trkpt>
      <trkpt lat="47.540817" lon="7.841934">
        <ele>390.874159</ele>
        <time>2021-07-31T18:16:30.902Z</time>
      </trkpt>
      <trkpt lat="47.540744" lon="7.841906">
        <ele>391.872494</ele>
        <time>2021-07-31T18:16:37.159Z</time>
      </trkpt>
      <trkpt lat="47.540531" lon="7.841825">
        <ele>394.783887</ele>
        <time>2021-07-31T18:16:50.042Z</time>
      </trkpt>
      <trkpt lat="47.540305" lon="7.841591">
        <ele>398.086318</ele>
        <time>2021-07-31T18:17:08.409Z</time>
      </trkpt>
      <trkpt lat="47.540168" lon="7.841414">
        <ele>399.972480</ele>
        <time>2021-07-31T18:17:20.226Z</time>
      </trkpt>
      <trkpt lat="47.540066" lon="7.841269">
        <ele>401.439298</ele>
        <time>2021-07-31T18:17:28.717Z</time>
      </trkpt>
      <trkpt lat="47.539702" lon="7.840734">
        <ele>406.759685</ele>
        <time>2021-07-31T18:17:54.227Z</time>
      </trkpt>
      <trkpt lat="47.539657" lon="7.840668">
        <ele>407.416736</ele>
        <time>2021-07-31T18:17:58.744Z</time>
      </trkpt>
      <trkpt lat="47.539459" lon="7.840353">
        <ele>410.431484</ele>
        <time>2021-07-31T18:18:13.735Z</time>
      </trkpt>
      <trkpt lat="47.539357" lon="7.840201">
        <ele>411.932678</ele>
        <time>2021-07-31T18:18:21.513Z</time>
      </trkpt>
      <trkpt lat="47.539226" lon="7.839805">
        <ele>415.021574</ele>
        <time>2021-07-31T18:18:38.224Z</time>
      </trkpt>
      <trkpt lat="47.538868" lon="7.838681">
        <ele>422.721173</ele>
        <time>2021-07-31T18:19:24.653Z</time>
      </trkpt>
      <trkpt lat="47.538837" lon="7.838580">
        <ele>423.403460</ele>
        <time>2021-07-31T18:19:29.767Z</time>
      </trkpt>
      <trkpt lat="47.538810" lon="7.838491">
        <ele>424.003494</ele>
        <time>2021-07-31T18:19:32.862Z</time>
      </trkpt>
      <trkpt lat="47.538712" lon="7.838169">
        <ele>426.175582</ele>
        <time>2021-07-31T18:19:44.096Z</time>
      </trkpt>
      <trkpt lat="47.538612" lon="7.837844">
        <ele>428.371998</ele>
        <time>2021-07-31T18:19:55.632Z</time>
      </trkpt>
      <trkpt lat="47.538505" lon="7.837464">
        <ele>430.903968</ele>
        <time>2021-07-31T18:20:08.175Z</time>
      </trkpt>
      <trkpt lat="47.538410" lon="7.837106">
        <ele>432.967413</ele>
        <time>2021-07-31T18:20:20.657Z</time>
      </trkpt>
      <trkpt lat="47.538222" lon="7.835464">
        <ele>440.996068</ele>
        <time>2021-07-31T18:21:11.542Z</time>
      </trkpt>
      <trkpt lat="47.538158" lon="7.835307">
        <ele>441.880199</ele>
        <time>2021-07-31T18:21:16.377Z</time>
      </trkpt>
      <trkpt lat="47.537707" lon="7.834801">
        <ele>445.677535</ele>
        <time>2021-07-31T18:21:37.661Z</time>
      </trkpt>
      <trkpt lat="47.537138" lon="7.834039">
        <ele>450.051821</ele>
        <time>2021-07-31T18:22:08.091Z</time>
      </trkpt>
      <trkpt lat="47.536897" lon="7.833599">
        <ele>452.233152</ele>
        <time>2021-07-31T18:22:23.908Z</time>
      </trkpt>
      <trkpt lat="47.536802" lon="7.833477">
        <ele>452.950154</ele>
        <time>2021-07-31T18:22:28.933Z</time>
      </trkpt>
      <trkpt lat="47.536644" lon="7.833357">
        <ele>453.962696</ele>
        <time>2021-07-31T18:22:35.266Z</time>
      </trkpt>
      <trkpt lat="47.536401" lon="7.833309">
        <ele>454.964890</ele>
        <time>2021-07-31T18:22:43.403Z</time>
      </trkpt>
      <trkpt lat="47.536091" lon="7.833355">
        <ele>454.931646</ele>
        <time>2021-07-31T18:22:53.146Z</time>
      </trkpt>
      <trkpt lat="47.535868" lon="7.833423">
        <ele>454.907352</ele>
        <time>2021-07-31T18:22:57.744Z</time>
      </trkpt>
      <trkpt lat="47.535301" lon="7.833465">
        <ele>454.846774</ele>
        <time>2021-07-31T18:23:05.902Z</time>
      </trkpt>
      <trkpt lat="47.535041" lon="7.833445">
        <ele>454.818993</ele>
        <time>2021-07-31T18:23:08.646Z</time>
      </trkpt>
      <trkpt lat="47.534869" lon="7.833423">
        <ele>454.800571</ele>
        <time>2021-07-31T18:23:10.247Z</time>
      </trkpt>
      <trkpt lat="47.534581" lon="7.833360">
        <ele>454.122405</ele>
        <time>2021-07-31T18:23:13.282Z</time>
      </trkpt>
      <trkpt lat="47.534536" lon="7.833350">
        <ele>453.824676</ele>
        <time>2021-07-31T18:23:13.666Z</time>
      </trkpt>
      <trkpt lat="47.534258" lon="7.833316">
        <ele>451.999541</ele>
        <time>2021-07-31T18:23:16.453Z</time>
      </trkpt>
      <trkpt lat="47.534141" lon="7.833324">
        <ele>451.233198</ele>
        <time>2021-07-31T18:23:17.468Z</time>
      </trkpt>
      <trkpt lat="47.534011" lon="7.833341">
        <ele>450.379303</ele>
        <time>2021-07-31T18:23:18.760Z</time>
      </trkpt>
      <trkpt lat="47.533862" lon="7.833372">
        <ele>449.394830</ele>
        <time>2021-07-31T18:23:20.098Z</time>
      </trkpt>
      <trkpt lat="47.533855" lon="7.833235">
        <ele>448.787900</ele>
        <time>2021-07-31T18:23:22.378Z</time>
      </trkpt>
      <trkpt lat="47.533787" lon="7.832819">
        <ele>446.897119</ele>
        <time>2021-07-31T18:23:24.998Z</time>
      </trkpt>
      <trkpt lat="47.533728" lon="7.831912">
        <ele>442.876736</ele>
        <time>2021-07-31T18:23:30.404Z</time>
      </trkpt>
      <trkpt lat="47.533685" lon="7.831757">
        <ele>442.162207</ele>
        <time>2021-07-31T18:23:31.405Z</time>
      </trkpt>
      <trkpt lat="47.533641" lon="7.831715">
        <ele>441.831616</ele>
        <time>2021-07-31T18:23:31.863Z</time>
      </trkpt>
      <trkpt lat="47.533606" lon="7.831667">
        <ele>441.530370</ele>
        <time>2021-07-31T18:23:32.320Z</time>
      </trkpt>
      <trkpt lat="47.533503" lon="7.831541">
        <ele>440.686692</ele>
        <time>2021-07-31T18:23:33.521Z</time>
      </trkpt>
      <trkpt lat="47.533464" lon="7.831485">
        <ele>440.343643</ele>
        <time>2021-07-31T18:23:33.993Z</time>
      </trkpt>
      <trkpt lat="47.533248" lon="7.831080">
        <ele>438.142936</ele>
        <time>2021-07-31T18:23:37.192Z</time>
      </trkpt>
      <trkpt lat="47.533205" lon="7.830904">
        <ele>437.344850</ele>
        <time>2021-07-31T18:23:38.403Z</time>
      </trkpt>
      <trkpt lat="47.533172" lon="7.830741">
        <ele>436.619246</ele>
        <time>2021-07-31T18:23:39.488Z</time>
      </trkpt>
      <trkpt lat="47.533138" lon="7.830624">
        <ele>436.076110</ele>
        <time>2021-07-31T18:23:40.262Z</time>
      </trkpt>
      <trkpt lat="47.532741" lon="7.829861">
        <ele>431.968657</ele>
        <time>2021-07-31T18:23:46.329Z</time>
      </trkpt>
      <trkpt lat="47.532227" lon="7.828686">
        <ele>425.064263</ele>
        <time>2021-07-31T18:23:54.972Z</time>
      </trkpt>
      <trkpt lat="47.531664" lon="7.828061">
        <ele>419.886302</ele>
        <time>2021-07-31T18:24:01.234Z</time>
      </trkpt>
      <trkpt lat="47.531513" lon="7.827959">
        <ele>418.664923</ele>
        <time>2021-07-31T18:24:02.655Z</time>
      </trkpt>
      <trkpt lat="47.530910" lon="7.827537">
        <ele>411.376234</ele>
        <time>2021-07-31T18:24:08.389Z</time>
      </trkpt>
      <trkpt lat="47.530778" lon="7.827416">
        <ele>409.650039</ele>
        <time>2021-07-31T18:24:09.730Z</time>
      </trkpt>
      <trkpt lat="47.530711" lon="7.827258">
        <ele>408.249229</ele>
        <time>2021-07-31T18:24:10.813Z</time>
      </trkpt>
      <trkpt lat="47.530663" lon="7.827082">
        <ele>406.824100</ele>
        <time>2021-07-31T18:24:11.886Z</time>
      </trkpt>
      <trkpt lat="47.530495" lon="7.827156">
        <ele>404.875119</ele>
        <time>2021-07-31T18:24:13.979Z</time>
      </trkpt>
      <trkpt lat="47.530339" lon="7.827141">
        <ele>403.136791</ele>
        <time>2021-07-31T18:24:15.820Z</time>
      </trkpt>
      <trkpt lat="47.530158" lon="7.827005">
        <ele>400.879920</ele>
        <time>2021-07-31T18:24:18.241Z</time>
      </trkpt>
      <trkpt lat="47.530051" lon="7.826934">
        <ele>399.576151</ele>
        <time>2021-07-31T18:24:19.638Z</time>
      </trkpt>
      <trkpt lat="47.529848" lon="7.826759">
        <ele>396.813002</ele>
        <time>2021-07-31T18:24:22.463Z</time>
      </trkpt>
      <trkpt lat="47.529587" lon="7.826488">
        <ele>392.898980</ele>
        <time>2021-07-31T18:24:26.303Z</time>
      </trkpt>
      <trkpt lat="47.529366" lon="7.826189">
        <ele>389.223423</ele>
        <time>2021-07-31T18:24:29.869Z</time>
      </trkpt>
      <trkpt lat="47.529325" lon="7.826126">
        <ele>388.497961</ele>
        <time>2021-07-31T18:24:30.539Z</time>
      </trkpt>
      <trkpt lat="47.528345" lon="7.825277">
        <ele>374.561651</ele>
        <time>2021-07-31T18:24:44.124Z</time>
      </trkpt>
      <trkpt lat="47.528196" lon="7.825074">
        <ele>372.082516</ele>
        <time>2021-07-31T18:24:46.583Z</time>
      </trkpt>
      <trkpt lat="47.528115" lon="7.824942">
        <ele>370.607741</ele>
        <time>2021-07-31T18:24:47.968Z</time>
      </trkpt>
      <trkpt lat="47.527888" lon="7.824419">
        <ele>365.467103</ele>
        <time>2021-07-31T18:24:53.023Z</time>
      </trkpt>
      <trkpt lat="47.527623" lon="7.823631">
        <ele>358.188311</ele>
        <time>2021-07-31T18:25:00.095Z</time>
      </trkpt>
      <trkpt lat="47.527440" lon="7.823003">
        <ele>353.130576</ele>
        <time>2021-07-31T18:25:05.559Z</time>
      </trkpt>
      <trkpt lat="47.527319" lon="7.822526">
        <ele>350.338655</ele>
        <time>2021-07-31T18:25:09.798Z</time>
      </trkpt>
      <trkpt lat="47.527302" lon="7.822396">
        <ele>349.613123</ele>
        <time>2021-07-31T18:25:10.935Z</time>
      </trkpt>
      <trkpt lat="47.527294" lon="7.822224">
        <ele>348.668466</ele>
        <time>2021-07-31T18:25:12.375Z</time>
      </trkpt>
      <trkpt lat="47.527306" lon="7.821963">
        <ele>347.235082</ele>
        <time>2021-07-31T18:25:14.597Z</time>
      </trkpt>
      <trkpt lat="47.527320" lon="7.821717">
        <ele>345.882418</ele>
        <time>2021-07-31T18:25:16.714Z</time>
      </trkpt>
      <trkpt lat="47.527328" lon="7.821598">
        <ele>345.227169</ele>
        <time>2021-07-31T18:25:17.721Z</time>
      </trkpt>
      <trkpt lat="47.527330" lon="7.821475">
        <ele>344.553031</ele>
        <time>2021-07-31T18:25:18.787Z</time>
      </trkpt>
      <trkpt lat="47.527273" lon="7.821332">
        <ele>343.643172</ele>
        <time>2021-07-31T18:25:20.241Z</time>
      </trkpt>
      <trkpt lat="47.527202" lon="7.821239">
        <ele>342.874028</ele>
        <time>2021-07-31T18:25:21.447Z</time>
      </trkpt>
      <trkpt lat="47.527128" lon="7.821204">
        <ele>342.243677</ele>
        <time>2021-07-31T18:25:22.440Z</time>
      </trkpt>
      <trkpt lat="47.527223" lon="7.820442">
        <ele>339.076136</ele>
        <time>2021-07-31T18:25:27.481Z</time>
      </trkpt>
      <trkpt lat="47.527258" lon="7.820150">
        <ele>338.474725</ele>
        <time>2021-07-31T18:25:29.418Z</time>
      </trkpt>
      <trkpt lat="47.527283" lon="7.819942">
        <ele>338.046287</ele>
        <time>2021-07-31T18:25:30.900Z</time>
      </trkpt>
      <trkpt lat="47.527327" lon="7.819619">
        <ele>337.378073</ele>
        <time>2021-07-31T18:25:33.211Z</time>
      </trkpt>
      <trkpt lat="47.527349" lon="7.819451">
        <ele>337.031035</ele>
        <time>2021-07-31T18:25:34.435Z</time>
      </trkpt>
      <trkpt lat="47.527408" lon="7.818945">
        <ele>335.989722</ele>
        <time>2021-07-31T18:25:38.185Z</time>
      </trkpt>
      <trkpt lat="47.527455" lon="7.818544">
        <ele>335.164368</ele>
        <time>2021-07-31T18:25:41.322Z</time>
      </trkpt>
      <trkpt lat="47.527466" lon="7.818406">
        <ele>334.882572</ele>
        <time>2021-07-31T18:25:42.355Z</time>
      </trkpt>
      <trkpt lat="47.527477" lon="7.818068">
        <ele>334.236138</ele>
        <time>2021-07-31T18:25:44.889Z</time>
      </trkpt>
      <trkpt lat="47.527477" lon="7.817911">
        <ele>334.031369</ele>
        <time>2021-07-31T18:25:46.026Z</time>
      </trkpt>
      <trkpt lat="47.527471" lon="7.817746">
        <ele>333.815853</ele>
        <time>2021-07-31T18:25:47.234Z</time>
      </trkpt>
      <trkpt lat="47.527432" lon="7.817173">
        <ele>333.064723</ele>
        <time>2021-07-31T18:25:51.370Z</time>
      </trkpt>
      <trkpt lat="47.527388" lon="7.816407">
        <ele>332.062048</ele>
        <time>2021-07-31T18:25:57.019Z</time>
      </trkpt>
      <trkpt lat="47.527376" lon="7.816175">
        <ele>331.758572</ele>
        <time>2021-07-31T18:25:58.721Z</time>
      </trkpt>
      <trkpt lat="47.527366" lon="7.816038">
        <ele>331.578847</ele>
        <time>2021-07-31T18:25:59.774Z</time>
      </trkpt>
      <trkpt lat="47.527362" lon="7.815959">
        <ele>331.475521</ele>
        <time>2021-07-31T18:26:00.399Z</time>
      </trkpt>
      <trkpt lat="47.527361" lon="7.815943">
        <ele>331.454563</ele>
        <time>2021-07-31T18:26:00.524Z</time>
      </trkpt>
      <trkpt lat="47.527346" lon="7.815799">
        <ele>331.264527</ele>
        <time>2021-07-31T18:26:01.662Z</time>
      </trkpt>
      <trkpt lat="47.527320" lon="7.815661">
        <ele>331.077663</ele>
        <time>2021-07-31T18:26:02.736Z</time>
      </trkpt>
      <trkpt lat="47.527292" lon="7.815550">
        <ele>330.923117</ele>
        <time>2021-07-31T18:26:03.641Z</time>
      </trkpt>
      <trkpt lat="47.527206" lon="7.815349">
        <ele>330.842666</ele>
        <time>2021-07-31T18:26:05.610Z</time>
      </trkpt>
      <trkpt lat="47.527153" lon="7.815269">
        <ele>330.848619</ele>
        <time>2021-07-31T18:26:06.473Z</time>
      </trkpt>
      <trkpt lat="47.527105" lon="7.815211">
        <ele>330.853493</ele>
        <time>2021-07-31T18:26:07.226Z</time>
      </trkpt>
      <trkpt lat="47.526665" lon="7.814850">
        <ele>330.893064</ele>
        <time>2021-07-31T18:26:13.989Z</time>
      </trkpt>
      <trkpt lat="47.526655" lon="7.814822">
        <ele>330.894746</ele>
        <time>2021-07-31T18:26:14.354Z</time>
      </trkpt>
      <trkpt lat="47.526579" lon="7.814859">
        <ele>330.901040</ele>
        <time>2021-07-31T18:26:15.624Z</time>
      </trkpt>
      <trkpt lat="47.526478" lon="7.814853">
        <ele>330.908992</ele>
        <time>2021-07-31T18:26:17.053Z</time>
      </trkpt>
      <trkpt lat="47.526394" lon="7.814809">
        <ele>330.916001</ele>
        <time>2021-07-31T18:26:18.465Z</time>
      </trkpt>
      <trkpt lat="47.526135" lon="7.814494">
        <ele>330.942366</ele>
        <time>2021-07-31T18:26:24.315Z</time>
      </trkpt>
      <trkpt lat="47.525874" lon="7.814072">
        <ele>330.972765</ele>
        <time>2021-07-31T18:26:31.767Z</time>
      </trkpt>
      <trkpt lat="47.525829" lon="7.814027">
        <ele>331.020531</ele>
        <time>2021-07-31T18:26:32.960Z</time>
      </trkpt>
      <trkpt lat="47.525640" lon="7.813941">
        <ele>331.397381</ele>
        <time>2021-07-31T18:26:36.873Z</time>
      </trkpt>
      <trkpt lat="47.525265" lon="7.813766">
        <ele>332.146769</ele>
        <time>2021-07-31T18:26:45.032Z</time>
      </trkpt>
      <trkpt lat="47.525103" lon="7.813754">
        <ele>332.455923</ele>
        <time>2021-07-31T18:26:48.978Z</time>
      </trkpt>
      <trkpt lat="47.524982" lon="7.813822">
        <ele>332.702593</ele>
        <time>2021-07-31T18:26:51.714Z</time>
      </trkpt>
      <trkpt lat="47.524963" lon="7.813836">
        <ele>332.743042</ele>
        <time>2021-07-31T18:26:52.146Z</time>
      </trkpt>
      <trkpt lat="47.524645" lon="7.814069">
        <ele>333.419271</ele>
        <time>2021-07-31T18:27:00.131Z</time>
      </trkpt>
      <trkpt lat="47.524601" lon="7.814100">
        <ele>333.512141</ele>
        <time>2021-07-31T18:27:01.185Z</time>
      </trkpt>
      <trkpt lat="47.524286" lon="7.814362">
        <ele>334.200740</ele>
        <time>2021-07-31T18:27:10.424Z</time>
      </trkpt>
      <trkpt lat="47.524032" lon="7.814643">
        <ele>334.949609</ele>
        <time>2021-07-31T18:27:18.477Z</time>
      </trkpt>
      <trkpt lat="47.523994" lon="7.814691">
        <ele>335.079067</ele>
        <time>2021-07-31T18:27:19.797Z</time>
      </trkpt>
      <trkpt lat="47.523836" lon="7.814923">
        <ele>335.655785</ele>
        <time>2021-07-31T18:27:25.723Z</time>
      </trkpt>
      <trkpt lat="47.523757" lon="7.815629">
        <ele>336.908346</ele>
        <time>2021-07-31T18:27:37.110Z</time>
      </trkpt>
      <trkpt lat="47.523730" lon="7.815653">
        <ele>336.989968</ele>
        <time>2021-07-31T18:27:38.486Z</time>
      </trkpt>
      <trkpt lat="47.523608" lon="7.815695">
        <ele>337.314618</ele>
        <time>2021-07-31T18:27:41.691Z</time>
      </trkpt>
      <trkpt lat="47.522090" lon="7.815952">
        <ele>341.319913</ele>
        <time>2021-07-31T18:28:20.085Z</time>
      </trkpt>
      <trkpt lat="47.521870" lon="7.815989">
        <ele>341.905520</ele>
        <time>2021-07-31T18:28:24.907Z</time>
      </trkpt>
      <trkpt lat="47.521699" lon="7.816019">
        <ele>342.360951</ele>
        <time>2021-07-31T18:28:29.598Z</time>
      </trkpt>
      <trkpt lat="47.521383" lon="7.816075">
        <ele>343.202685</ele>
        <time>2021-07-31T18:28:37.935Z</time>
      </trkpt>
      <trkpt lat="47.521199" lon="7.816108">
        <ele>343.692893</ele>
        <time>2021-07-31T18:28:42.502Z</time>
      </trkpt>
      <trkpt lat="47.521087" lon="7.816144">
        <ele>344.008407</ele>
        <time>2021-07-31T18:28:45.405Z</time>
      </trkpt>
      <trkpt lat="47.521028" lon="7.816163">
        <ele>344.179502</ele>
        <time>2021-07-31T18:28:47.686Z</time>
      </trkpt>
      <trkpt lat="47.520578" lon="7.816306">
        <ele>345.483696</ele>
        <time>2021-07-31T18:29:00.012Z</time>
      </trkpt>
      <trkpt lat="47.520002" lon="7.816556">
        <ele>347.184571</ele>
        <time>2021-07-31T18:29:16.280Z</time>
      </trkpt>
      <trkpt lat="47.519959" lon="7.816575">
        <ele>347.311729</ele>
        <time>2021-07-31T18:29:17.561Z</time>
      </trkpt>
      <trkpt lat="47.519807" lon="7.816661">
        <ele>347.772822</ele>
        <time>2021-07-31T18:29:21.577Z</time>
      </trkpt>
      <trkpt lat="47.519453" lon="7.816861">
        <ele>348.846484</ele>
        <time>2021-07-31T18:29:31.338Z</time>
      </trkpt>
      <trkpt lat="47.518941" lon="7.817228">
        <ele>350.011465</ele>
        <time>2021-07-31T18:29:44.594Z</time>
      </trkpt>
      <trkpt lat="47.518481" lon="7.817598">
        <ele>351.064132</ele>
        <time>2021-07-31T18:29:56.342Z</time>
      </trkpt>
      <trkpt lat="47.518220" lon="7.817823">
        <ele>351.671440</ele>
        <time>2021-07-31T18:30:02.738Z</time>
      </trkpt>
      <trkpt lat="47.518035" lon="7.818005">
        <ele>352.118075</ele>
        <time>2021-07-31T18:30:07.447Z</time>
      </trkpt>
      <trkpt lat="47.517657" lon="7.818442">
        <ele>353.394475</ele>
        <time>2021-07-31T18:30:17.863Z</time>
      </trkpt>
      <trkpt lat="47.516786" lon="7.819655">
        <ele>357.172230</ele>
        <time>2021-07-31T18:30:48.913Z</time>
      </trkpt>
      <trkpt lat="47.515587" lon="7.820532">
        <ele>362.904658</ele>
        <time>2021-07-31T18:31:37.836Z</time>
      </trkpt>
      <trkpt lat="47.515469" lon="7.820644">
        <ele>363.557480</ele>
        <time>2021-07-31T18:31:43.361Z</time>
      </trkpt>
      <trkpt lat="47.515268" lon="7.820836">
        <ele>364.671566</ele>
        <time>2021-07-31T18:31:50.346Z</time>
      </trkpt>
      <trkpt lat="47.515202" lon="7.820909">
        <ele>365.055267</ele>
        <time>2021-07-31T18:31:53.687Z</time>
      </trkpt>
      <trkpt lat="47.515036" lon="7.821090">
        <ele>366.015448</ele>
        <time>2021-07-31T18:31:59.549Z</time>
      </trkpt>
      <trkpt lat="47.514821" lon="7.821292">
        <ele>366.815417</ele>
        <time>2021-07-31T18:32:07.128Z</time>
      </trkpt>
      <trkpt lat="47.514708" lon="7.821376">
        <ele>367.028887</ele>
        <time>2021-07-31T18:32:10.300Z</time>
      </trkpt>
      <trkpt lat="47.514302" lon="7.821660">
        <ele>367.786979</ele>
        <time>2021-07-31T18:32:22.019Z</time>
      </trkpt>
      <trkpt lat="47.513483" lon="7.822231">
        <ele>369.315315</ele>
        <time>2021-07-31T18:32:38.148Z</time>
      </trkpt>
      <trkpt lat="47.512648" lon="7.822935">
        <ele>370.995474</ele>
        <time>2021-07-31T18:32:53.907Z</time>
      </trkpt>
      <trkpt lat="47.512263" lon="7.823167">
        <ele>371.728371</ele>
        <time>2021-07-31T18:33:02.409Z</time>
      </trkpt>
      <trkpt lat="47.512067" lon="7.823229">
        <ele>372.081754</ele>
        <time>2021-07-31T18:33:07.313Z</time>
      </trkpt>
      <trkpt lat="47.511863" lon="7.823271">
        <ele>372.444903</ele>
        <time>2021-07-31T18:33:12.253Z</time>
      </trkpt>
      <trkpt lat="47.510706" lon="7.823221">
        <ele>377.742046</ele>
        <time>2021-07-31T18:33:50.860Z</time>
      </trkpt>
      <trkpt lat="47.510203" lon="7.823212">
        <ele>380.346198</ele>
        <time>2021-07-31T18:34:09.879Z</time>
      </trkpt>
      <trkpt lat="47.509744" lon="7.823275">
        <ele>382.820096</ele>
        <time>2021-07-31T18:34:28.043Z</time>
      </trkpt>
      <trkpt lat="47.509075" lon="7.823456">
        <ele>386.839945</ele>
        <time>2021-07-31T18:34:58.119Z</time>
      </trkpt>
      <trkpt lat="47.508288" lon="7.824180">
        <ele>392.316772</ele>
        <time>2021-07-31T18:35:33.605Z</time>
      </trkpt>
      <trkpt lat="47.507990" lon="7.824326">
        <ele>393.228758</ele>
        <time>2021-07-31T18:35:43.213Z</time>
      </trkpt>
      <trkpt lat="47.507017" lon="7.824678">
        <ele>395.230851</ele>
        <time>2021-07-31T18:36:07.017Z</time>
      </trkpt>
      <trkpt lat="47.506147" lon="7.825028">
        <ele>396.320660</ele>
        <time>2021-07-31T18:36:20.198Z</time>
      </trkpt>
      <trkpt lat="47.504813" lon="7.825703">
        <ele>396.233974</ele>
        <time>2021-07-31T18:36:39.277Z</time>
      </trkpt>
      <trkpt lat="47.503860" lon="7.825735">
        <ele>397.901058</ele>
        <time>2021-07-31T18:36:57.497Z</time>
      </trkpt>
      <trkpt lat="47.503509" lon="7.825771">
        <ele>398.546591</ele>
        <time>2021-07-31T18:37:05.649Z</time>
      </trkpt>
      <trkpt lat="47.503225" lon="7.825809">
        <ele>399.069778</ele>
        <time>2021-07-31T18:37:12.725Z</time>
      </trkpt>
      <trkpt lat="47.503231" lon="7.825900">
        <ele>399.183104</ele>
        <time>2021-07-31T18:37:14.675Z</time>
      </trkpt>
      <trkpt lat="47.503225" lon="7.825979">
        <ele>399.281637</ele>
        <time>2021-07-31T18:37:16.394Z</time>
      </trkpt>
      <trkpt lat="47.503196" lon="7.826042">
        <ele>399.376127</ele>
        <time>2021-07-31T18:37:18.936Z</time>
      </trkpt>
      <trkpt lat="47.503059" lon="7.826259">
        <ele>400.182208</ele>
        <time>2021-07-31T18:37:24.542Z</time>
      </trkpt>
      <trkpt lat="47.502694" lon="7.826607">
        <ele>402.617218</ele>
        <time>2021-07-31T18:37:41.261Z</time>
      </trkpt>
      <trkpt lat="47.502306" lon="7.827173">
        <ele>405.672464</ele>
        <time>2021-07-31T18:38:05.618Z</time>
      </trkpt>
      <trkpt lat="47.502031" lon="7.827633">
        <ele>407.999827</ele>
        <time>2021-07-31T18:38:24.798Z</time>
      </trkpt>
      <trkpt lat="47.501972" lon="7.827862">
        <ele>408.928455</ele>
        <time>2021-07-31T18:38:31.869Z</time>
      </trkpt>
      <trkpt lat="47.501935" lon="7.828179">
        <ele>410.540135</ele>
        <time>2021-07-31T18:38:41.659Z</time>
      </trkpt>
      <trkpt lat="47.501916" lon="7.828447">
        <ele>412.320437</ele>
        <time>2021-07-31T18:38:51.337Z</time>
      </trkpt>
      <trkpt lat="47.501872" lon="7.828923">
        <ele>415.494501</ele>
        <time>2021-07-31T18:39:09.145Z</time>
      </trkpt>
      <trkpt lat="47.501570" lon="7.830119">
        <ele>423.929980</ele>
        <time>2021-07-31T18:40:03.262Z</time>
      </trkpt>
      <trkpt lat="47.501508" lon="7.830397">
        <ele>425.864132</ele>
        <time>2021-07-31T18:40:16.112Z</time>
      </trkpt>
      <trkpt lat="47.501426" lon="7.830651">
        <ele>427.922237</ele>
        <time>2021-07-31T18:40:29.340Z</time>
      </trkpt>
      <trkpt lat="47.501317" lon="7.830941">
        <ele>430.958505</ele>
        <time>2021-07-31T18:40:43.509Z</time>
      </trkpt>
      <trkpt lat="47.500938" lon="7.831417">
        <ele>437.689887</ele>
        <time>2021-07-31T18:41:18.628Z</time>
      </trkpt>
      <trkpt lat="47.500316" lon="7.832383">
        <ele>449.899431</ele>
        <time>2021-07-31T18:42:33.973Z</time>
      </trkpt>
      <trkpt lat="47.499956" lon="7.833147">
        <ele>458.183855</ele>
        <time>2021-07-31T18:43:16.887Z</time>
      </trkpt>
      <trkpt lat="47.499893" lon="7.833272">
        <ele>459.561175</ele>
        <time>2021-07-31T18:43:26.675Z</time>
      </trkpt>
      <trkpt lat="47.499905" lon="7.833427">
        <ele>460.939051</ele>
        <time>2021-07-31T18:43:33.678Z</time>
      </trkpt>
      <trkpt lat="47.499840" lon="7.834402">
        <ele>469.591810</ele>
        <time>2021-07-31T18:44:26.311Z</time>
      </trkpt>
      <trkpt lat="47.499538" lon="7.835274">
        <ele>476.643714</ele>
        <time>2021-07-31T18:45:10.097Z</time>
      </trkpt>
      <trkpt lat="47.499509" lon="7.835360">
        <ele>477.062901</ele>
        <time>2021-07-31T18:45:14.879Z</time>
      </trkpt>
      <trkpt lat="47.499349" lon="7.835598">
        <ele>478.527197</ele>
        <time>2021-07-31T18:45:23.151Z</time>
      </trkpt>
      <trkpt lat="47.499268" lon="7.835669">
        <ele>479.134886</ele>
        <time>2021-07-31T18:45:30.137Z</time>
      </trkpt>
      <trkpt lat="47.499117" lon="7.835753">
        <ele>480.176210</ele>
        <time>2021-07-31T18:45:36.410Z</time>
      </trkpt>
      <trkpt lat="47.499070" lon="7.835763">
        <ele>480.482729</ele>
        <time>2021-07-31T18:45:37.913Z</time>
      </trkpt>
      <trkpt lat="47.498371" lon="7.835942">
        <ele>485.062041</ele>
        <time>2021-07-31T18:46:05.733Z</time>
      </trkpt>
      <trkpt lat="47.497663" lon="7.836246">
        <ele>487.887517</ele>
        <time>2021-07-31T18:46:32.730Z</time>
      </trkpt>
      <trkpt lat="47.497488" lon="7.836415">
        <ele>488.403070</ele>
        <time>2021-07-31T18:46:37.291Z</time>
      </trkpt>
      <trkpt lat="47.497283" lon="7.836569">
        <ele>488.970283</ele>
        <time>2021-07-31T18:46:44.007Z</time>
      </trkpt>
      <trkpt lat="47.497024" lon="7.836771">
        <ele>489.692602</ele>
        <time>2021-07-31T18:46:50.989Z</time>
      </trkpt>
      <trkpt lat="47.496981" lon="7.836871">
        <ele>489.890198</ele>
        <time>2021-07-31T18:46:53.550Z</time>
      </trkpt>
      <trkpt lat="47.497050" lon="7.837488">
        <ele>490.932716</ele>
        <time>2021-07-31T18:47:04.745Z</time>
      </trkpt>
      <trkpt lat="47.497006" lon="7.837744">
        <ele>491.505376</ele>
        <time>2021-07-31T18:47:09.331Z</time>
      </trkpt>
      <trkpt lat="47.496962" lon="7.837850">
        <ele>491.825294</ele>
        <time>2021-07-31T18:47:13.050Z</time>
      </trkpt>
      <trkpt lat="47.496868" lon="7.837844">
        <ele>492.183403</ele>
        <time>2021-07-31T18:47:15.264Z</time>
      </trkpt>
      <trkpt lat="47.496520" lon="7.837694">
        <ele>493.562963</ele>
        <time>2021-07-31T18:47:27.873Z</time>
      </trkpt>
      <trkpt lat="47.496083" lon="7.837670">
        <ele>495.227390</ele>
        <time>2021-07-31T18:47:43.311Z</time>
      </trkpt>
      <trkpt lat="47.495686" lon="7.837455">
        <ele>496.836402</ele>
        <time>2021-07-31T18:47:58.706Z</time>
      </trkpt>
      <trkpt lat="47.495516" lon="7.837485">
        <ele>497.488029</ele>
        <time>2021-07-31T18:48:07.763Z</time>
      </trkpt>
      <trkpt lat="47.494860" lon="7.837661">
        <ele>501.246618</ele>
        <time>2021-07-31T18:48:33.480Z</time>
      </trkpt>
      <trkpt lat="47.494701" lon="7.837752">
        <ele>502.281862</ele>
        <time>2021-07-31T18:48:40.850Z</time>
      </trkpt>
      <trkpt lat="47.494593" lon="7.837800">
        <ele>502.966651</ele>
        <time>2021-07-31T18:48:44.885Z</time>
      </trkpt>
      <trkpt lat="47.494516" lon="7.837806">
        <ele>503.434899</ele>
        <time>2021-07-31T18:48:48.828Z</time>
      </trkpt>
      <trkpt lat="47.494536" lon="7.837978">
        <ele>504.151009</ele>
        <time>2021-07-31T18:48:54.442Z</time>
      </trkpt>
      <trkpt lat="47.494626" lon="7.838257">
        <ele>505.419553</ele>
        <time>2021-07-31T18:49:02.864Z</time>
      </trkpt>
      <trkpt lat="47.494673" lon="7.838344">
        <ele>505.876599</ele>
        <time>2021-07-31T18:49:07.586Z</time>
      </trkpt>
      <trkpt lat="47.494823" lon="7.838533">
        <ele>507.072899</ele>
        <time>2021-07-31T18:49:15.877Z</time>
      </trkpt>
      <trkpt lat="47.495494" lon="7.839107">
        <ele>512.704622</ele>
        <time>2021-07-31T18:49:55.673Z</time>
      </trkpt>
      <trkpt lat="47.496134" lon="7.839925">
        <ele>519.488634</ele>
        <time>2021-07-31T18:50:43.031Z</time>
      </trkpt>
      <trkpt lat="47.496357" lon="7.840209">
        <ele>521.848813</ele>
        <time>2021-07-31T18:50:58.279Z</time>
      </trkpt>
      <trkpt lat="47.496495" lon="7.840384">
        <ele>523.306726</ele>
        <time>2021-07-31T18:51:07.680Z</time>
      </trkpt>
      <trkpt lat="47.496881" lon="7.840859">
        <ele>526.060389</ele>
        <time>2021-07-31T18:51:31.370Z</time>
      </trkpt>
      <trkpt lat="47.497204" lon="7.841203">
        <ele>528.237963</ele>
        <time>2021-07-31T18:51:48.963Z</time>
      </trkpt>
      <trkpt lat="47.497385" lon="7.841209">
        <ele>529.228695</ele>
        <time>2021-07-31T18:51:56.881Z</time>
      </trkpt>
      <trkpt lat="47.497488" lon="7.841201">
        <ele>529.793116</ele>
        <time>2021-07-31T18:52:00.964Z</time>
      </trkpt>
      <trkpt lat="47.497919" lon="7.841122">
        <ele>532.169688</ele>
        <time>2021-07-31T18:52:17.439Z</time>
      </trkpt>
      <trkpt lat="47.498156" lon="7.841079">
        <ele>533.332550</ele>
        <time>2021-07-31T18:52:25.549Z</time>
      </trkpt>
      <trkpt lat="47.498763" lon="7.840766">
        <ele>535.197153</ele>
        <time>2021-07-31T18:52:44.830Z</time>
      </trkpt>
      <trkpt lat="47.499138" lon="7.840659">
        <ele>536.304996</ele>
        <time>2021-07-31T18:52:55.732Z</time>
      </trkpt>
      <trkpt lat="47.499316" lon="7.840601">
        <ele>536.833709</ele>
        <time>2021-07-31T18:53:01.425Z</time>
      </trkpt>
      <trkpt lat="47.499541" lon="7.840552">
        <ele>537.493425</ele>
        <time>2021-07-31T18:53:08.796Z</time>
      </trkpt>
      <trkpt lat="47.500334" lon="7.840257">
        <ele>540.653846</ele>
        <time>2021-07-31T18:53:36.300Z</time>
      </trkpt>
      <trkpt lat="47.500490" lon="7.840175">
        <ele>541.390365</ele>
        <time>2021-07-31T18:53:42.007Z</time>
      </trkpt>
      <trkpt lat="47.500610" lon="7.840107">
        <ele>541.962040</ele>
        <time>2021-07-31T18:53:47.156Z</time>
      </trkpt>
      <trkpt lat="47.501875" lon="7.839304">
        <ele>548.564816</ele>
        <time>2021-07-31T18:54:43.601Z</time>
      </trkpt>
      <trkpt lat="47.502118" lon="7.839230">
        <ele>549.980399</ele>
        <time>2021-07-31T18:54:53.533Z</time>
      </trkpt>
      <trkpt lat="47.502464" lon="7.839247">
        <ele>551.955744</ele>
        <time>2021-07-31T18:55:08.203Z</time>
      </trkpt>
      <trkpt lat="47.502604" lon="7.839292">
        <ele>552.773193</ele>
        <time>2021-07-31T18:55:16.411Z</time>
      </trkpt>
      <trkpt lat="47.502663" lon="7.839102">
        <ele>553.579251</ele>
        <time>2021-07-31T18:55:22.140Z</time>
      </trkpt>
      <trkpt lat="47.502604" lon="7.839292">
        <ele>554.385309</ele>
        <time>2021-07-31T18:55:27.826Z</time>
      </trkpt>
      <trkpt lat="47.502712" lon="7.839407">
        <ele>555.144427</ele>
        <time>2021-07-31T18:55:35.732Z</time>
      </trkpt>
      <trkpt lat="47.502867" lon="7.839629">
        <ele>556.375073</ele>
        <time>2021-07-31T18:55:43.470Z</time>
      </trkpt>
      <trkpt lat="47.503029" lon="7.840222">
        <ele>558.072142</ele>
        <time>2021-07-31T18:56:02.700Z</time>
      </trkpt>
      <trkpt lat="47.503203" lon="7.840615">
        <ele>559.247009</ele>
        <time>2021-07-31T18:56:14.322Z</time>
      </trkpt>
      <trkpt lat="47.503247" lon="7.840737">
        <ele>559.592799</ele>
        <time>2021-07-31T18:56:19.565Z</time>
      </trkpt>
      <trkpt lat="47.503365" lon="7.840954">
        <ele>560.289308</ele>
        <time>2021-07-31T18:56:24.917Z</time>
      </trkpt>
      <trkpt lat="47.503565" lon="7.841261">
        <ele>561.355685</ele>
        <time>2021-07-31T18:56:34.809Z</time>
      </trkpt>
      <trkpt lat="47.503614" lon="7.841305">
        <ele>561.567803</ele>
        <time>2021-07-31T18:56:36.579Z</time>
      </trkpt>
      <trkpt lat="47.503768" lon="7.841356">
        <ele>562.151876</ele>
        <time>2021-07-31T18:56:40.857Z</time>
      </trkpt>
      <trkpt lat="47.504959" lon="7.841240">
        <ele>563.941973</ele>
        <time>2021-07-31T18:57:11.522Z</time>
      </trkpt>
      <trkpt lat="47.505239" lon="7.841203">
        <ele>564.143621</ele>
        <time>2021-07-31T18:57:17.151Z</time>
      </trkpt>
      <trkpt lat="47.505358" lon="7.841213">
        <ele>564.229119</ele>
        <time>2021-07-31T18:57:19.877Z</time>
      </trkpt>
      <trkpt lat="47.505959" lon="7.841291">
        <ele>564.455609</ele>
        <time>2021-07-31T18:57:32.027Z</time>
      </trkpt>
      <trkpt lat="47.506374" lon="7.841365">
        <ele>563.747615</ele>
        <time>2021-07-31T18:57:40.470Z</time>
      </trkpt>
      <trkpt lat="47.506150" lon="7.843312">
        <ele>561.322332</ele>
        <time>2021-07-31T18:58:01.761Z</time>
      </trkpt>
      <trkpt lat="47.506130" lon="7.843433">
        <ele>560.823233</ele>
        <time>2021-07-31T18:58:02.996Z</time>
      </trkpt>
      <trkpt lat="47.506032" lon="7.844375">
        <ele>557.004527</ele>
        <time>2021-07-31T18:58:20.322Z</time>
      </trkpt>
      <trkpt lat="47.505847" lon="7.845902">
        <ele>550.807534</ele>
        <time>2021-07-31T18:58:47.637Z</time>
      </trkpt>
      <trkpt lat="47.505835" lon="7.845960">
        <ele>550.611313</ele>
        <time>2021-07-31T18:58:48.575Z</time>
      </trkpt>
      <trkpt lat="47.505754" lon="7.846083">
        <ele>550.055651</ele>
        <time>2021-07-31T18:58:49.589Z</time>
      </trkpt>
      <trkpt lat="47.504849" lon="7.846705">
        <ele>545.277629</ele>
        <time>2021-07-31T18:58:58.780Z</time>
      </trkpt>
      <trkpt lat="47.504599" lon="7.846703">
        <ele>544.080452</ele>
        <time>2021-07-31T18:59:01.406Z</time>
      </trkpt>
      <trkpt lat="47.504232" lon="7.846590">
        <ele>542.285408</ele>
        <time>2021-07-31T18:59:05.222Z</time>
      </trkpt>
      <trkpt lat="47.503628" lon="7.846708">
        <ele>542.278847</ele>
        <time>2021-07-31T18:59:14.695Z</time>
      </trkpt>
      <trkpt lat="47.503256" lon="7.846808">
        <ele>542.282565</ele>
        <time>2021-07-31T18:59:21.189Z</time>
      </trkpt>
      <trkpt lat="47.503134" lon="7.846872">
        <ele>542.283837</ele>
        <time>2021-07-31T18:59:23.908Z</time>
      </trkpt>
      <trkpt lat="47.503044" lon="7.846999">
        <ele>542.285060</ele>
        <time>2021-07-31T18:59:26.289Z</time>
      </trkpt>
      <trkpt lat="47.503023" lon="7.847369">
        <ele>542.287527</ele>
        <time>2021-07-31T18:59:30.258Z</time>
      </trkpt>
      <trkpt lat="47.503052" lon="7.847473">
        <ele>542.288274</ele>
        <time>2021-07-31T18:59:32.285Z</time>
      </trkpt>
      <trkpt lat="47.503091" lon="7.847553">
        <ele>542.288929</ele>
        <time>2021-07-31T18:59:32.974Z</time>
      </trkpt>
      <trkpt lat="47.503484" lon="7.848394">
        <ele>541.753405</ele>
        <time>2021-07-31T18:59:44.723Z</time>
      </trkpt>
      <trkpt lat="47.503641" lon="7.848945">
        <ele>541.339388</ele>
        <time>2021-07-31T18:59:49.902Z</time>
      </trkpt>
      <trkpt lat="47.503893" lon="7.849807">
        <ele>540.689120</ele>
        <time>2021-07-31T18:59:56.941Z</time>
      </trkpt>
      <trkpt lat="47.504239" lon="7.850874">
        <ele>539.726636</ele>
        <time>2021-07-31T19:00:05.378Z</time>
      </trkpt>
      <trkpt lat="47.504357" lon="7.850973">
        <ele>539.553195</ele>
        <time>2021-07-31T19:00:06.844Z</time>
      </trkpt>
      <trkpt lat="47.504672" lon="7.850987">
        <ele>539.150210</ele>
        <time>2021-07-31T19:00:10.339Z</time>
      </trkpt>
      <trkpt lat="47.504851" lon="7.851192">
        <ele>538.860810</ele>
        <time>2021-07-31T19:00:13.123Z</time>
      </trkpt>
      <trkpt lat="47.504903" lon="7.851306">
        <ele>538.741987</ele>
        <time>2021-07-31T19:00:14.067Z</time>
      </trkpt>
      <trkpt lat="47.504980" lon="7.851535">
        <ele>538.521020</ele>
        <time>2021-07-31T19:00:16.843Z</time>
      </trkpt>
      <trkpt lat="47.505145" lon="7.852200">
        <ele>538.548326</ele>
        <time>2021-07-31T19:00:24.710Z</time>
      </trkpt>
      <trkpt lat="47.505215" lon="7.852914">
        <ele>539.597789</ele>
        <time>2021-07-31T19:00:34.959Z</time>
      </trkpt>
      <trkpt lat="47.505250" lon="7.853383">
        <ele>540.284144</ele>
        <time>2021-07-31T19:00:43.015Z</time>
      </trkpt>
      <trkpt lat="47.504477" lon="7.853819">
        <ele>542.053457</ele>
        <time>2021-07-31T19:01:11.260Z</time>
      </trkpt>
      <trkpt lat="47.504150" lon="7.853972">
        <ele>542.597045</ele>
        <time>2021-07-31T19:01:21.246Z</time>
      </trkpt>
      <trkpt lat="47.503693" lon="7.854148">
        <ele>543.345528</ele>
        <time>2021-07-31T19:01:34.877Z</time>
      </trkpt>
      <trkpt lat="47.503269" lon="7.854422">
        <ele>544.078841</ele>
        <time>2021-07-31T19:01:46.808Z</time>
      </trkpt>
      <trkpt lat="47.502908" lon="7.854689">
        <ele>544.718494</ele>
        <time>2021-07-31T19:01:55.676Z</time>
      </trkpt>
      <trkpt lat="47.502566" lon="7.854916">
        <ele>545.031057</ele>
        <time>2021-07-31T19:02:03.339Z</time>
      </trkpt>
      <trkpt lat="47.502338" lon="7.854924">
        <ele>545.161987</ele>
        <time>2021-07-31T19:02:07.770Z</time>
      </trkpt>
      <trkpt lat="47.500046" lon="7.854421">
        <ele>547.857018</ele>
        <time>2021-07-31T19:03:01.666Z</time>
      </trkpt>
      <trkpt lat="47.499815" lon="7.854405">
        <ele>548.297715</ele>
        <time>2021-07-31T19:03:08.141Z</time>
      </trkpt>
      <trkpt lat="47.499091" lon="7.854535">
        <ele>550.425892</ele>
        <time>2021-07-31T19:03:32.603Z</time>
      </trkpt>
      <trkpt lat="47.498934" lon="7.854576">
        <ele>551.359617</ele>
        <time>2021-07-31T19:03:40.104Z</time>
      </trkpt>
      <trkpt lat="47.498844" lon="7.854653">
        <ele>551.968453</ele>
        <time>2021-07-31T19:03:43.672Z</time>
      </trkpt>
      <trkpt lat="47.498600" lon="7.854805">
        <ele>553.518929</ele>
        <time>2021-07-31T19:03:55.348Z</time>
      </trkpt>
      <trkpt lat="47.498499" lon="7.854914">
        <ele>554.251012</ele>
        <time>2021-07-31T19:04:00.176Z</time>
      </trkpt>
      <trkpt lat="47.498061" lon="7.854851">
        <ele>556.828390</ele>
        <time>2021-07-31T19:04:19.725Z</time>
      </trkpt>
      <trkpt lat="47.498034" lon="7.854847">
        <ele>556.987314</ele>
        <time>2021-07-31T19:04:20.949Z</time>
      </trkpt>
      <trkpt lat="47.497996" lon="7.854842">
        <ele>557.210752</ele>
        <time>2021-07-31T19:04:24.622Z</time>
      </trkpt>
      <trkpt lat="47.497386" lon="7.854753">
        <ele>560.913009</ele>
        <time>2021-07-31T19:04:53.525Z</time>
      </trkpt>
      <trkpt lat="47.496291" lon="7.855054">
        <ele>568.219212</ele>
        <time>2021-07-31T19:05:51.931Z</time>
      </trkpt>
      <trkpt lat="47.495962" lon="7.855400">
        <ele>570.866867</ele>
        <time>2021-07-31T19:06:08.228Z</time>
      </trkpt>
      <trkpt lat="47.495742" lon="7.855769">
        <ele>571.544432</ele>
        <time>2021-07-31T19:06:19.342Z</time>
      </trkpt>
      <trkpt lat="47.495682" lon="7.855928">
        <ele>571.473957</ele>
        <time>2021-07-31T19:06:24.588Z</time>
      </trkpt>
      <trkpt lat="47.495761" lon="7.855963">
        <ele>571.426726</ele>
        <time>2021-07-31T19:06:25.541Z</time>
      </trkpt>
      <trkpt lat="47.495985" lon="7.856090">
        <ele>571.289339</ele>
        <time>2021-07-31T19:06:30.994Z</time>
      </trkpt>
      <trkpt lat="47.496570" lon="7.856657">
        <ele>570.888831</ele>
        <time>2021-07-31T19:06:39.408Z</time>
      </trkpt>
      <trkpt lat="47.496867" lon="7.857284">
        <ele>570.046525</ele>
        <time>2021-07-31T19:06:44.505Z</time>
      </trkpt>
      <trkpt lat="47.497045" lon="7.858131">
        <ele>565.292513</ele>
        <time>2021-07-31T19:06:49.876Z</time>
      </trkpt>
      <trkpt lat="47.497149" lon="7.858438">
        <ele>563.451915</ele>
        <time>2021-07-31T19:06:51.888Z</time>
      </trkpt>
      <trkpt lat="47.497833" lon="7.859414">
        <ele>555.989112</ele>
        <time>2021-07-31T19:07:00.134Z</time>
      </trkpt>
      <trkpt lat="47.497901" lon="7.859533">
        <ele>555.290371</ele>
        <time>2021-07-31T19:07:01.087Z</time>
      </trkpt>
      <trkpt lat="47.497901" lon="7.859533">
        <ele>555.290371</ele>
        <time>2021-07-31T19:07:01.114Z</time>
      </trkpt>
      <trkpt lat="47.498026" lon="7.859791">
        <ele>553.867021</ele>
        <time>2021-07-31T19:07:03.002Z</time>
      </trkpt>
      <trkpt lat="47.498262" lon="7.860571">
        <ele>550.035455</ele>
        <time>2021-07-31T19:07:08.222Z</time>
      </trkpt>
      <trkpt lat="47.498298" lon="7.860778">
        <ele>549.077176</ele>
        <time>2021-07-31T19:07:09.514Z</time>
      </trkpt>
      <trkpt lat="47.498322" lon="7.861024">
        <ele>547.962867</ele>
        <time>2021-07-31T19:07:11.180Z</time>
      </trkpt>
      <trkpt lat="47.498287" lon="7.861611">
        <ele>545.320994</ele>
        <time>2021-07-31T19:07:14.810Z</time>
      </trkpt>
      <trkpt lat="47.497995" lon="7.862394">
        <ele>543.236631</ele>
        <time>2021-07-31T19:07:20.799Z</time>
      </trkpt>
      <trkpt lat="47.497959" lon="7.862857">
        <ele>542.436376</ele>
        <time>2021-07-31T19:07:24.027Z</time>
      </trkpt>
      <trkpt lat="47.497989" lon="7.863021">
        <ele>542.144636</ele>
        <time>2021-07-31T19:07:26.548Z</time>
      </trkpt>
      <trkpt lat="47.498044" lon="7.863155">
        <ele>541.875415</ele>
        <time>2021-07-31T19:07:27.630Z</time>
      </trkpt>
      <trkpt lat="47.498094" lon="7.863239">
        <ele>541.683187</ele>
        <time>2021-07-31T19:07:28.621Z</time>
      </trkpt>
      <trkpt lat="47.498143" lon="7.863313">
        <ele>541.505272</ele>
        <time>2021-07-31T19:07:29.311Z</time>
      </trkpt>
      <trkpt lat="47.498166" lon="7.863537">
        <ele>541.116231</ele>
        <time>2021-07-31T19:07:31.352Z</time>
      </trkpt>
      <trkpt lat="47.498248" lon="7.864392">
        <ele>539.952919</ele>
        <time>2021-07-31T19:07:37.471Z</time>
      </trkpt>
      <trkpt lat="47.498584" lon="7.865733">
        <ele>540.952725</ele>
        <time>2021-07-31T19:07:51.516Z</time>
      </trkpt>
      <trkpt lat="47.498684" lon="7.866219">
        <ele>541.307865</ele>
        <time>2021-07-31T19:07:59.543Z</time>
      </trkpt>
      <trkpt lat="47.498701" lon="7.866355">
        <ele>541.404547</ele>
        <time>2021-07-31T19:08:01.739Z</time>
      </trkpt>
      <trkpt lat="47.498711" lon="7.866489">
        <ele>541.498788</ele>
        <time>2021-07-31T19:08:04.780Z</time>
      </trkpt>
      <trkpt lat="47.498708" lon="7.866607">
        <ele>541.581333</ele>
        <time>2021-07-31T19:08:06.804Z</time>
      </trkpt>
      <trkpt lat="47.498693" lon="7.866735">
        <ele>541.672146</ele>
        <time>2021-07-31T19:08:09.136Z</time>
      </trkpt>
      <trkpt lat="47.498653" lon="7.866934">
        <ele>542.287915</ele>
        <time>2021-07-31T19:08:13.520Z</time>
      </trkpt>
      <trkpt lat="47.498630" lon="7.867024">
        <ele>542.685701</ele>
        <time>2021-07-31T19:08:16.830Z</time>
      </trkpt>
      <trkpt lat="47.498572" lon="7.867305">
        <ele>543.900356</ele>
        <time>2021-07-31T19:08:23.252Z</time>
      </trkpt>
      <trkpt lat="47.498619" lon="7.867966">
        <ele>546.648015</ele>
        <time>2021-07-31T19:08:40.026Z</time>
      </trkpt>
      <trkpt lat="47.498841" lon="7.868725">
        <ele>550.067130</ele>
        <time>2021-07-31T19:09:04.886Z</time>
      </trkpt>
      <trkpt lat="47.498841" lon="7.868842">
        <ele>550.550805</ele>
        <time>2021-07-31T19:09:09.046Z</time>
      </trkpt>
      <trkpt lat="47.498712" lon="7.869428">
        <ele>553.059750</ele>
        <time>2021-07-31T19:09:27.511Z</time>
      </trkpt>
      <trkpt lat="47.498465" lon="7.870383">
        <ele>556.844147</ele>
        <time>2021-07-31T19:09:54.965Z</time>
      </trkpt>
      <trkpt lat="47.498055" lon="7.871303">
        <ele>560.922915</ele>
        <time>2021-07-31T19:10:23.262Z</time>
      </trkpt>
      <trkpt lat="47.497934" lon="7.872335">
        <ele>562.408117</ele>
        <time>2021-07-31T19:10:42.570Z</time>
      </trkpt>
      <trkpt lat="47.497633" lon="7.872780">
        <ele>562.227916</ele>
        <time>2021-07-31T19:10:49.934Z</time>
      </trkpt>
      <trkpt lat="47.497631" lon="7.872944">
        <ele>562.180976</ele>
        <time>2021-07-31T19:10:51.102Z</time>
      </trkpt>
      <trkpt lat="47.497701" lon="7.873105">
        <ele>562.126186</ele>
        <time>2021-07-31T19:10:53.309Z</time>
      </trkpt>
      <trkpt lat="47.498014" lon="7.873264">
        <ele>561.986018</ele>
        <time>2021-07-31T19:10:56.961Z</time>
      </trkpt>
      <trkpt lat="47.498142" lon="7.873340">
        <ele>561.927601</ele>
        <time>2021-07-31T19:10:58.517Z</time>
      </trkpt>
      <trkpt lat="47.498192" lon="7.873383">
        <ele>561.903107</ele>
        <time>2021-07-31T19:10:59.020Z</time>
      </trkpt>
      <trkpt lat="47.498401" lon="7.873824">
        <ele>561.204828</ele>
        <time>2021-07-31T19:11:02.580Z</time>
      </trkpt>
      <trkpt lat="47.499093" lon="7.874392">
        <ele>558.224232</ele>
        <time>2021-07-31T19:11:10.125Z</time>
      </trkpt>
      <trkpt lat="47.499268" lon="7.874920">
        <ele>556.727562</ele>
        <time>2021-07-31T19:11:13.855Z</time>
      </trkpt>
      <trkpt lat="47.499319" lon="7.875000">
        <ele>556.447646</ele>
        <time>2021-07-31T19:11:14.489Z</time>
      </trkpt>
      <trkpt lat="47.499319" lon="7.875000">
        <ele>556.447646</ele>
        <time>2021-07-31T19:11:14.619Z</time>
      </trkpt>
      <trkpt lat="47.499282" lon="7.875162">
        <ele>556.012459</ele>
        <time>2021-07-31T19:11:16.230Z</time>
      </trkpt>
      <trkpt lat="47.498835" lon="7.876435">
        <ele>557.389780</ele>
        <time>2021-07-31T19:11:34.714Z</time>
      </trkpt>
      <trkpt lat="47.498708" lon="7.876999">
        <ele>558.714080</ele>
        <time>2021-07-31T19:11:48.248Z</time>
      </trkpt>
      <trkpt lat="47.498728" lon="7.877133">
        <ele>559.019774</ele>
        <time>2021-07-31T19:11:50.407Z</time>
      </trkpt>
      <trkpt lat="47.498622" lon="7.877161">
        <ele>559.374794</ele>
        <time>2021-07-31T19:11:56.754Z</time>
      </trkpt>
      <trkpt lat="47.498351" lon="7.877306">
        <ele>560.324913</ele>
        <time>2021-07-31T19:12:06.879Z</time>
      </trkpt>
      <trkpt lat="47.498148" lon="7.877525">
        <ele>561.613911</ele>
        <time>2021-07-31T19:12:18.736Z</time>
      </trkpt>
      <trkpt lat="47.497693" lon="7.878386">
        <ele>570.282223</ele>
        <time>2021-07-31T19:13:05.301Z</time>
      </trkpt>
      <trkpt lat="47.497250" lon="7.878931">
        <ele>577.043559</ele>
        <time>2021-07-31T19:13:47.085Z</time>
      </trkpt>
      <trkpt lat="47.497148" lon="7.879174">
        <ele>579.312206</ele>
        <time>2021-07-31T19:13:57.847Z</time>
      </trkpt>
      <trkpt lat="47.497087" lon="7.879380">
        <ele>581.095831</ele>
        <time>2021-07-31T19:14:09.871Z</time>
      </trkpt>
      <trkpt lat="47.497046" lon="7.879652">
        <ele>582.842443</ele>
        <time>2021-07-31T19:14:20.060Z</time>
      </trkpt>
      <trkpt lat="47.496934" lon="7.880335">
        <ele>586.300936</ele>
        <time>2021-07-31T19:14:48.162Z</time>
      </trkpt>
      <trkpt lat="47.496817" lon="7.881208">
        <ele>590.680518</ele>
        <time>2021-07-31T19:15:16.525Z</time>
      </trkpt>
      <trkpt lat="47.496775" lon="7.881742">
        <ele>593.325988</ele>
        <time>2021-07-31T19:15:30.557Z</time>
      </trkpt>
      <trkpt lat="47.496758" lon="7.882064">
        <ele>594.915327</ele>
        <time>2021-07-31T19:15:34.501Z</time>
      </trkpt>
      <trkpt lat="47.496733" lon="7.882493">
        <ele>594.508695</ele>
        <time>2021-07-31T19:15:39.507Z</time>
      </trkpt>
      <trkpt lat="47.496732" lon="7.882629">
        <ele>594.264051</ele>
        <time>2021-07-31T19:15:42.284Z</time>
      </trkpt>
      <trkpt lat="47.496724" lon="7.882743">
        <ele>594.057890</ele>
        <time>2021-07-31T19:15:43.244Z</time>
      </trkpt>
      <trkpt lat="47.496734" lon="7.882969">
        <ele>593.650501</ele>
        <time>2021-07-31T19:15:45.412Z</time>
      </trkpt>
      <trkpt lat="47.496687" lon="7.883397">
        <ele>592.870533</ele>
        <time>2021-07-31T19:15:48.454Z</time>
      </trkpt>
      <trkpt lat="47.496652" lon="7.883465">
        <ele>592.716768</ele>
        <time>2021-07-31T19:15:49.285Z</time>
      </trkpt>
      <trkpt lat="47.496581" lon="7.883536">
        <ele>592.488643</ele>
        <time>2021-07-31T19:15:50.054Z</time>
      </trkpt>
      <trkpt lat="47.496049" lon="7.883820">
        <ele>590.982977</ele>
        <time>2021-07-31T19:15:55.586Z</time>
      </trkpt>
      <trkpt lat="47.495454" lon="7.883705">
        <ele>587.418805</ele>
        <time>2021-07-31T19:16:01.021Z</time>
      </trkpt>
      <trkpt lat="47.494764" lon="7.884042">
        <ele>581.720402</ele>
        <time>2021-07-31T19:16:07.457Z</time>
      </trkpt>
      <trkpt lat="47.494367" lon="7.884261">
        <ele>578.397666</ele>
        <time>2021-07-31T19:16:11.200Z</time>
      </trkpt>
      <trkpt lat="47.494186" lon="7.884344">
        <ele>576.911586</ele>
        <time>2021-07-31T19:16:12.831Z</time>
      </trkpt>
      <trkpt lat="47.493814" lon="7.884597">
        <ele>572.844368</ele>
        <time>2021-07-31T19:16:16.361Z</time>
      </trkpt>
      <trkpt lat="47.493304" lon="7.885334">
        <ele>565.405124</ele>
        <time>2021-07-31T19:16:22.497Z</time>
      </trkpt>
      <trkpt lat="47.493060" lon="7.885635">
        <ele>562.089935</ele>
        <time>2021-07-31T19:16:25.179Z</time>
      </trkpt>
      <trkpt lat="47.492927" lon="7.885817">
        <ele>560.199429</ele>
        <time>2021-07-31T19:16:26.712Z</time>
      </trkpt>
      <trkpt lat="47.492348" lon="7.886838">
        <ele>551.309598</ele>
        <time>2021-07-31T19:16:34.475Z</time>
      </trkpt>
      <trkpt lat="47.492288" lon="7.886983">
        <ele>550.201568</ele>
        <time>2021-07-31T19:16:35.445Z</time>
      </trkpt>
      <trkpt lat="47.492246" lon="7.887099">
        <ele>549.343943</ele>
        <time>2021-07-31T19:16:36.219Z</time>
      </trkpt>
      <trkpt lat="47.492175" lon="7.887289">
        <ele>547.929035</ele>
        <time>2021-07-31T19:16:37.485Z</time>
      </trkpt>
      <trkpt lat="47.491962" lon="7.888038">
        <ele>542.633338</ele>
        <time>2021-07-31T19:16:42.297Z</time>
      </trkpt>
      <trkpt lat="47.491769" lon="7.889166">
        <ele>536.027037</ele>
        <time>2021-07-31T19:16:49.233Z</time>
      </trkpt>
      <trkpt lat="47.491698" lon="7.889463">
        <ele>534.365539</ele>
        <time>2021-07-31T19:16:51.091Z</time>
      </trkpt>
      <trkpt lat="47.491657" lon="7.889588">
        <ele>533.632731</ele>
        <time>2021-07-31T19:16:51.987Z</time>
      </trkpt>
      <trkpt lat="47.491390" lon="7.890064">
        <ele>530.370049</ele>
        <time>2021-07-31T19:16:55.804Z</time>
      </trkpt>
      <trkpt lat="47.491152" lon="7.890269">
        <ele>528.220697</ele>
        <time>2021-07-31T19:16:58.276Z</time>
      </trkpt>
      <trkpt lat="47.491016" lon="7.890331">
        <ele>527.109971</ele>
        <time>2021-07-31T19:16:59.559Z</time>
      </trkpt>
      <trkpt lat="47.490978" lon="7.890353">
        <ele>526.791487</ele>
        <time>2021-07-31T19:16:59.896Z</time>
      </trkpt>
      <trkpt lat="47.490438" lon="7.890555">
        <ele>521.885540</ele>
        <time>2021-07-31T19:17:04.770Z</time>
      </trkpt>
      <trkpt lat="47.489665" lon="7.890612">
        <ele>514.929767</ele>
        <time>2021-07-31T19:17:11.437Z</time>
      </trkpt>
      <trkpt lat="47.489379" lon="7.890627">
        <ele>512.357797</ele>
        <time>2021-07-31T19:17:13.884Z</time>
      </trkpt>
      <trkpt lat="47.488950" lon="7.890650">
        <ele>509.478138</ele>
        <time>2021-07-31T19:17:17.700Z</time>
      </trkpt>
      <trkpt lat="47.488715" lon="7.890673">
        <ele>508.772359</ele>
        <time>2021-07-31T19:17:19.858Z</time>
      </trkpt>
      <trkpt lat="47.488680" lon="7.890697">
        <ele>508.656759</ele>
        <time>2021-07-31T19:17:20.182Z</time>
      </trkpt>
      <trkpt lat="47.488595" lon="7.890769">
        <ele>508.363257</ele>
        <time>2021-07-31T19:17:21.156Z</time>
      </trkpt>
      <trkpt lat="47.488499" lon="7.890970">
        <ele>507.864820</ele>
        <time>2021-07-31T19:17:22.728Z</time>
      </trkpt>
      <trkpt lat="47.488495" lon="7.891186">
        <ele>507.427249</ele>
        <time>2021-07-31T19:17:24.034Z</time>
      </trkpt>
      <trkpt lat="47.488799" lon="7.891910">
        <ele>505.701138</ele>
        <time>2021-07-31T19:17:30.893Z</time>
      </trkpt>
      <trkpt lat="47.488835" lon="7.892066">
        <ele>505.367321</ele>
        <time>2021-07-31T19:17:32.045Z</time>
      </trkpt>
      <trkpt lat="47.488809" lon="7.892200">
        <ele>505.085003</ele>
        <time>2021-07-31T19:17:33.788Z</time>
      </trkpt>
      <trkpt lat="47.488707" lon="7.892577">
        <ele>505.360468</ele>
        <time>2021-07-31T19:17:41.608Z</time>
      </trkpt>
      <trkpt lat="47.488649" lon="7.892618">
        <ele>505.839550</ele>
        <time>2021-07-31T19:17:44.245Z</time>
      </trkpt>
      <trkpt lat="47.488571" lon="7.892671">
        <ele>506.479265</ele>
        <time>2021-07-31T19:17:46.445Z</time>
      </trkpt>
      <trkpt lat="47.488402" lon="7.893037">
        <ele>508.711893</ele>
        <time>2021-07-31T19:17:58.365Z</time>
      </trkpt>
      <trkpt lat="47.488323" lon="7.893133">
        <ele>509.473786</ele>
        <time>2021-07-31T19:18:01.423Z</time>
      </trkpt>
      <trkpt lat="47.488372" lon="7.893226">
        <ele>510.067737</ele>
        <time>2021-07-31T19:18:05.980Z</time>
      </trkpt>
      <trkpt lat="47.488417" lon="7.893532">
        <ele>511.644988</ele>
        <time>2021-07-31T19:18:15.241Z</time>
      </trkpt>
      <trkpt lat="47.488316" lon="7.893785">
        <ele>513.124982</ele>
        <time>2021-07-31T19:18:24.676Z</time>
      </trkpt>
      <trkpt lat="47.488216" lon="7.894259">
        <ele>515.625945</ele>
        <time>2021-07-31T19:18:42.779Z</time>
      </trkpt>
      <trkpt lat="47.488180" lon="7.894303">
        <ele>515.973948</ele>
        <time>2021-07-31T19:18:47.232Z</time>
      </trkpt>
      <trkpt lat="47.488123" lon="7.894358">
        <ele>516.481121</ele>
        <time>2021-07-31T19:18:51.823Z</time>
      </trkpt>
      <trkpt lat="47.487840" lon="7.894546">
        <ele>519.069238</ele>
        <time>2021-07-31T19:19:10.694Z</time>
      </trkpt>
      <trkpt lat="47.487689" lon="7.894368">
        <ele>520.998589</ele>
        <time>2021-07-31T19:19:19.418Z</time>
      </trkpt>
      <trkpt lat="47.487657" lon="7.894274">
        <ele>521.709414</ele>
        <time>2021-07-31T19:19:24.821Z</time>
      </trkpt>
      <trkpt lat="47.487632" lon="7.894208">
        <ele>522.220389</ele>
        <time>2021-07-31T19:19:29.233Z</time>
      </trkpt>
      <trkpt lat="47.487476" lon="7.893956">
        <ele>524.528417</ele>
        <time>2021-07-31T19:19:40.608Z</time>
      </trkpt>
      <trkpt lat="47.487323" lon="7.893893">
        <ele>526.115581</ele>
        <time>2021-07-31T19:19:51.856Z</time>
      </trkpt>
      <trkpt lat="47.487256" lon="7.893919">
        <ele>526.807816</ele>
        <time>2021-07-31T19:19:55.906Z</time>
      </trkpt>
      <trkpt lat="47.487216" lon="7.893977">
        <ele>527.367491</ele>
        <time>2021-07-31T19:19:58.445Z</time>
      </trkpt>
      <trkpt lat="47.487181" lon="7.894092">
        <ele>528.219275</ele>
        <time>2021-07-31T19:20:01.037Z</time>
      </trkpt>
      <trkpt lat="47.487170" lon="7.894195">
        <ele>528.923515</ele>
        <time>2021-07-31T19:20:05.034Z</time>
      </trkpt>
      <trkpt lat="47.487161" lon="7.894314">
        <ele>529.732195</ele>
        <time>2021-07-31T19:20:12.352Z</time>
      </trkpt>
      <trkpt lat="47.487149" lon="7.895169">
        <ele>535.507657</ele>
        <time>2021-07-31T19:20:41.294Z</time>
      </trkpt>
      <trkpt lat="47.487062" lon="7.896463">
        <ele>541.204245</ele>
        <time>2021-07-31T19:21:21.350Z</time>
      </trkpt>
      <trkpt lat="47.487132" lon="7.896643">
        <ele>542.087324</ele>
        <time>2021-07-31T19:21:28.309Z</time>
      </trkpt>
      <trkpt lat="47.487234" lon="7.896710">
        <ele>542.789539</ele>
        <time>2021-07-31T19:21:30.649Z</time>
      </trkpt>
      <trkpt lat="47.487421" lon="7.896715">
        <ele>543.966414</ele>
        <time>2021-07-31T19:21:37.608Z</time>
      </trkpt>
      <trkpt lat="47.487908" lon="7.896570">
        <ele>547.092233</ele>
        <time>2021-07-31T19:21:53.679Z</time>
      </trkpt>
      <trkpt lat="47.488079" lon="7.896715">
        <ele>547.549000</ele>
        <time>2021-07-31T19:21:59.656Z</time>
      </trkpt>
      <trkpt lat="47.488083" lon="7.896718">
        <ele>547.556277</ele>
        <time>2021-07-31T19:21:59.874Z</time>
      </trkpt>
      <trkpt lat="47.488140" lon="7.896871">
        <ele>547.747861</ele>
        <time>2021-07-31T19:22:04.178Z</time>
      </trkpt>
      <trkpt lat="47.488196" lon="7.897116">
        <ele>548.031473</ele>
        <time>2021-07-31T19:22:07.925Z</time>
      </trkpt>
      <trkpt lat="47.488244" lon="7.897339">
        <ele>548.288113</ele>
        <time>2021-07-31T19:22:15.032Z</time>
      </trkpt>
      <trkpt lat="47.488505" lon="7.899198">
        <ele>549.659163</ele>
        <time>2021-07-31T19:22:36.644Z</time>
      </trkpt>
      <trkpt lat="47.488504" lon="7.899482">
        <ele>548.702559</ele>
        <time>2021-07-31T19:22:38.903Z</time>
      </trkpt>
      <trkpt lat="47.488488" lon="7.899603">
        <ele>548.287267</ele>
        <time>2021-07-31T19:22:41.268Z</time>
      </trkpt>
      <trkpt lat="47.488332" lon="7.900256">
        <ele>545.954368</ele>
        <time>2021-07-31T19:22:54.858Z</time>
      </trkpt>
      <trkpt lat="47.488318" lon="7.900297">
        <ele>545.799638</ele>
        <time>2021-07-31T19:22:55.679Z</time>
      </trkpt>
      <trkpt lat="47.488244" lon="7.900510">
        <ele>544.992924</ele>
        <time>2021-07-31T19:22:59.993Z</time>
      </trkpt>
      <trkpt lat="47.487618" lon="7.902286">
        <ele>535.959230</ele>
        <time>2021-07-31T19:23:34.490Z</time>
      </trkpt>
      <trkpt lat="47.487094" lon="7.903449">
        <ele>527.643097</ele>
        <time>2021-07-31T19:23:57.904Z</time>
      </trkpt>
      <trkpt lat="47.486956" lon="7.903776">
        <ele>525.356264</ele>
        <time>2021-07-31T19:24:04.399Z</time>
      </trkpt>
      <trkpt lat="47.486851" lon="7.904088">
        <ele>523.597577</ele>
        <time>2021-07-31T19:24:10.239Z</time>
      </trkpt>
      <trkpt lat="47.486787" lon="7.904241">
        <ele>522.689645</ele>
        <time>2021-07-31T19:24:13.398Z</time>
      </trkpt>
      <trkpt lat="47.486721" lon="7.904326">
        <ele>522.036344</ele>
        <time>2021-07-31T19:24:15.644Z</time>
      </trkpt>
      <trkpt lat="47.486755" lon="7.904487">
        <ele>521.185237</ele>
        <time>2021-07-31T19:24:16.624Z</time>
      </trkpt>
      <trkpt lat="47.486724" lon="7.905485">
        <ele>516.144274</ele>
        <time>2021-07-31T19:24:22.597Z</time>
      </trkpt>
      <trkpt lat="47.486769" lon="7.905976">
        <ele>513.644136</ele>
        <time>2021-07-31T19:24:25.617Z</time>
      </trkpt>
      <trkpt lat="47.486969" lon="7.906583">
        <ele>511.170304</ele>
        <time>2021-07-31T19:24:29.940Z</time>
      </trkpt>
      <trkpt lat="47.487197" lon="7.906946">
        <ele>510.020865</ele>
        <time>2021-07-31T19:24:33.496Z</time>
      </trkpt>
      <trkpt lat="47.487378" lon="7.907191">
        <ele>509.178949</ele>
        <time>2021-07-31T19:24:36.083Z</time>
      </trkpt>
      <trkpt lat="47.487587" lon="7.907459">
        <ele>508.229776</ele>
        <time>2021-07-31T19:24:38.958Z</time>
      </trkpt>
      <trkpt lat="47.487763" lon="7.907711">
        <ele>507.389238</ele>
        <time>2021-07-31T19:24:41.481Z</time>
      </trkpt>
      <trkpt lat="47.488080" lon="7.908344">
        <ele>505.548062</ele>
        <time>2021-07-31T19:24:46.851Z</time>
      </trkpt>
      <trkpt lat="47.488185" lon="7.908663">
        <ele>504.675425</ele>
        <time>2021-07-31T19:24:49.391Z</time>
      </trkpt>
      <trkpt lat="47.488241" lon="7.908835">
        <ele>504.205888</ele>
        <time>2021-07-31T19:24:50.651Z</time>
      </trkpt>
      <trkpt lat="47.488366" lon="7.909318">
        <ele>502.933914</ele>
        <time>2021-07-31T19:24:54.270Z</time>
      </trkpt>
      <trkpt lat="47.488699" lon="7.910498">
        <ele>499.789065</ele>
        <time>2021-07-31T19:25:02.812Z</time>
      </trkpt>
      <trkpt lat="47.488908" lon="7.911009">
        <ele>498.299580</ele>
        <time>2021-07-31T19:25:06.656Z</time>
      </trkpt>
      <trkpt lat="47.489040" lon="7.911300">
        <ele>497.418515</ele>
        <time>2021-07-31T19:25:08.874Z</time>
      </trkpt>
      <trkpt lat="47.489216" lon="7.911685">
        <ele>496.250018</ele>
        <time>2021-07-31T19:25:11.970Z</time>
      </trkpt>
      <trkpt lat="47.489607" lon="7.912646">
        <ele>493.430121</ele>
        <time>2021-07-31T19:25:19.501Z</time>
      </trkpt>
      <trkpt lat="47.489843" lon="7.913398">
        <ele>491.782124</ele>
        <time>2021-07-31T19:25:25.392Z</time>
      </trkpt>
      <trkpt lat="47.489922" lon="7.913738">
        <ele>491.204725</ele>
        <time>2021-07-31T19:25:28.110Z</time>
      </trkpt>
      <trkpt lat="47.489951" lon="7.913893">
        <ele>490.946439</ele>
        <time>2021-07-31T19:25:29.307Z</time>
      </trkpt>
      <trkpt lat="47.489987" lon="7.914083">
        <ele>490.629542</ele>
        <time>2021-07-31T19:25:30.783Z</time>
      </trkpt>
      <trkpt lat="47.490283" lon="7.915612">
        <ele>488.025558</ele>
        <time>2021-07-31T19:25:42.363Z</time>
      </trkpt>
      <trkpt lat="47.490429" lon="7.916164">
        <ele>486.841473</ele>
        <time>2021-07-31T19:25:46.625Z</time>
      </trkpt>
      <trkpt lat="47.490607" lon="7.916690">
        <ele>485.666390</ele>
        <time>2021-07-31T19:25:50.845Z</time>
      </trkpt>
      <trkpt lat="47.490822" lon="7.917158">
        <ele>484.535968</ele>
        <time>2021-07-31T19:25:54.770Z</time>
      </trkpt>
      <trkpt lat="47.491324" lon="7.917985">
        <ele>481.994417</ele>
        <time>2021-07-31T19:26:02.234Z</time>
      </trkpt>
      <trkpt lat="47.492227" lon="7.918989">
        <ele>476.998837</ele>
        <time>2021-07-31T19:26:13.098Z</time>
      </trkpt>
      <trkpt lat="47.492584" lon="7.919482">
        <ele>474.836012</ele>
        <time>2021-07-31T19:26:17.711Z</time>
      </trkpt>
      <trkpt lat="47.492813" lon="7.919900">
        <ele>473.197521</ele>
        <time>2021-07-31T19:26:21.144Z</time>
      </trkpt>
      <trkpt lat="47.493132" lon="7.920716">
        <ele>470.327128</ele>
        <time>2021-07-31T19:26:27.214Z</time>
      </trkpt>
      <trkpt lat="47.493236" lon="7.921091">
        <ele>469.092915</ele>
        <time>2021-07-31T19:26:29.847Z</time>
      </trkpt>
      <trkpt lat="47.493307" lon="7.921373">
        <ele>468.176629</ele>
        <time>2021-07-31T19:26:31.827Z</time>
      </trkpt>
      <trkpt lat="47.493397" lon="7.921760">
        <ele>466.930479</ele>
        <time>2021-07-31T19:26:34.541Z</time>
      </trkpt>
      <trkpt lat="47.493708" lon="7.923049">
        <ele>463.721434</ele>
        <time>2021-07-31T19:26:43.758Z</time>
      </trkpt>
      <trkpt lat="47.494034" lon="7.924101">
        <ele>461.013578</ele>
        <time>2021-07-31T19:26:51.722Z</time>
      </trkpt>
      <trkpt lat="47.494438" lon="7.925289">
        <ele>457.729867</ele>
        <time>2021-07-31T19:27:00.825Z</time>
      </trkpt>
      <trkpt lat="47.494515" lon="7.925509">
        <ele>457.114209</ele>
        <time>2021-07-31T19:27:02.441Z</time>
      </trkpt>
      <trkpt lat="47.494945" lon="7.926765">
        <ele>453.641910</ele>
        <time>2021-07-31T19:27:11.846Z</time>
      </trkpt>
      <trkpt lat="47.495031" lon="7.927006">
        <ele>453.005075</ele>
        <time>2021-07-31T19:27:13.571Z</time>
      </trkpt>
      <trkpt lat="47.495268" lon="7.927740">
        <ele>451.104234</ele>
        <time>2021-07-31T19:27:18.955Z</time>
      </trkpt>
      <trkpt lat="47.495455" lon="7.928595">
        <ele>449.004390</ele>
        <time>2021-07-31T19:27:25.107Z</time>
      </trkpt>
      <trkpt lat="47.495530" lon="7.929063">
        <ele>447.880532</ele>
        <time>2021-07-31T19:27:28.426Z</time>
      </trkpt>
      <trkpt lat="47.495562" lon="7.929221">
        <ele>447.660724</ele>
        <time>2021-07-31T19:27:29.674Z</time>
      </trkpt>
      <trkpt lat="47.495622" lon="7.929400">
        <ele>447.419075</ele>
        <time>2021-07-31T19:27:31.185Z</time>
      </trkpt>
      <trkpt lat="47.495801" lon="7.929891">
        <ele>446.744363</ele>
        <time>2021-07-31T19:27:35.336Z</time>
      </trkpt>
      <trkpt lat="47.495985" lon="7.930428">
        <ele>446.016209</ele>
        <time>2021-07-31T19:27:39.742Z</time>
      </trkpt>
      <trkpt lat="47.496051" lon="7.930607">
        <ele>445.769601</ele>
        <time>2021-07-31T19:27:41.333Z</time>
      </trkpt>
      <trkpt lat="47.496117" lon="7.930763">
        <ele>445.547010</ele>
        <time>2021-07-31T19:27:42.725Z</time>
      </trkpt>
      <trkpt lat="47.496162" lon="7.930842">
        <ele>445.422050</ele>
        <time>2021-07-31T19:27:43.597Z</time>
      </trkpt>
      <trkpt lat="47.496205" lon="7.930904">
        <ele>445.314599</ele>
        <time>2021-07-31T19:27:44.223Z</time>
      </trkpt>
      <trkpt lat="47.496424" lon="7.931075">
        <ele>444.871405</ele>
        <time>2021-07-31T19:27:47.593Z</time>
      </trkpt>
      <trkpt lat="47.496998" lon="7.931330">
        <ele>443.843806</ele>
        <time>2021-07-31T19:27:55.171Z</time>
      </trkpt>
      <trkpt lat="47.497104" lon="7.931414">
        <ele>443.640424</ele>
        <time>2021-07-31T19:27:56.586Z</time>
      </trkpt>
      <trkpt lat="47.497221" lon="7.931528">
        <ele>443.403483</ele>
        <time>2021-07-31T19:27:58.241Z</time>
      </trkpt>
      <trkpt lat="47.497430" lon="7.931757">
        <ele>442.963628</ele>
        <time>2021-07-31T19:28:01.087Z</time>
      </trkpt>
      <trkpt lat="47.497676" lon="7.932013">
        <ele>442.454959</ele>
        <time>2021-07-31T19:28:04.250Z</time>
      </trkpt>
      <trkpt lat="47.497907" lon="7.932254">
        <ele>441.976907</ele>
        <time>2021-07-31T19:28:07.350Z</time>
      </trkpt>
      <trkpt lat="47.498068" lon="7.932426">
        <ele>441.641045</ele>
        <time>2021-07-31T19:28:09.490Z</time>
      </trkpt>
      <trkpt lat="47.498138" lon="7.932522">
        <ele>441.489582</ele>
        <time>2021-07-31T19:28:10.493Z</time>
      </trkpt>
      <trkpt lat="47.498196" lon="7.932613">
        <ele>441.361300</ele>
        <time>2021-07-31T19:28:11.403Z</time>
      </trkpt>
      <trkpt lat="47.498391" lon="7.932972">
        <ele>440.888959</ele>
        <time>2021-07-31T19:28:14.918Z</time>
      </trkpt>
      <trkpt lat="47.498431" lon="7.932995">
        <ele>440.823829</ele>
        <time>2021-07-31T19:28:15.408Z</time>
      </trkpt>
      <trkpt lat="47.498481" lon="7.933011">
        <ele>440.746188</ele>
        <time>2021-07-31T19:28:15.961Z</time>
      </trkpt>
      <trkpt lat="47.498925" lon="7.932781">
        <ele>440.032231</ele>
        <time>2021-07-31T19:28:21.558Z</time>
      </trkpt>
      <trkpt lat="47.498997" lon="7.932758">
        <ele>439.920438</ele>
        <time>2021-07-31T19:28:22.350Z</time>
      </trkpt>
      <trkpt lat="47.499088" lon="7.932741">
        <ele>439.781227</ele>
        <time>2021-07-31T19:28:23.552Z</time>
      </trkpt>
      <trkpt lat="47.499354" lon="7.932769">
        <ele>439.376487</ele>
        <time>2021-07-31T19:28:26.687Z</time>
      </trkpt>
      <trkpt lat="47.499421" lon="7.932805">
        <ele>439.268305</ele>
        <time>2021-07-31T19:28:27.553Z</time>
      </trkpt>
      <trkpt lat="47.499538" lon="7.932868">
        <ele>439.079344</ele>
        <time>2021-07-31T19:28:28.967Z</time>
      </trkpt>
      <trkpt lat="47.499822" lon="7.933272">
        <ele>438.712765</ele>
        <time>2021-07-31T19:28:33.516Z</time>
      </trkpt>
      <trkpt lat="47.499993" lon="7.933864">
        <ele>438.470682</ele>
        <time>2021-07-31T19:28:38.983Z</time>
      </trkpt>
      <trkpt lat="47.500034" lon="7.933965">
        <ele>438.426378</ele>
        <time>2021-07-31T19:28:39.876Z</time>
      </trkpt>
      <trkpt lat="47.500007" lon="7.933994">
        <ele>438.407812</ele>
        <time>2021-07-31T19:28:40.350Z</time>
      </trkpt>
      <trkpt lat="47.499971" lon="7.934127">
        <ele>438.353940</ele>
        <time>2021-07-31T19:28:42.010Z</time>
      </trkpt>
      <trkpt lat="47.499976" lon="7.934175">
        <ele>438.335679</ele>
        <time>2021-07-31T19:28:42.672Z</time>
      </trkpt>
      <trkpt lat="47.499991" lon="7.934221">
        <ele>438.316474</ele>
        <time>2021-07-31T19:28:43.059Z</time>
      </trkpt>
      <trkpt lat="47.500077" lon="7.934300">
        <ele>438.260143</ele>
        <time>2021-07-31T19:28:44.300Z</time>
      </trkpt>
      <trkpt lat="47.500111" lon="7.934299">
        <ele>438.241216</ele>
        <time>2021-07-31T19:28:44.837Z</time>
      </trkpt>
      <trkpt lat="47.500150" lon="7.934279">
        <ele>438.218245</ele>
        <time>2021-07-31T19:28:45.380Z</time>
      </trkpt>
      <trkpt lat="47.500213" lon="7.934131">
        <ele>438.152473</ele>
        <time>2021-07-31T19:28:47.653Z</time>
      </trkpt>
      <trkpt lat="47.500208" lon="7.934071">
        <ele>438.129742</ele>
        <time>2021-07-31T19:28:48.378Z</time>
      </trkpt>
      <trkpt lat="47.500275" lon="7.934029">
        <ele>438.089247</ele>
        <time>2021-07-31T19:28:49.259Z</time>
      </trkpt>
      <trkpt lat="47.500352" lon="7.933976">
        <ele>438.041986</ele>
        <time>2021-07-31T19:28:50.536Z</time>
      </trkpt>
      <trkpt lat="47.500386" lon="7.933937">
        <ele>438.018047</ele>
        <time>2021-07-31T19:28:51.182Z</time>
      </trkpt>
      <trkpt lat="47.500435" lon="7.933872">
        <ele>437.981428</ele>
        <time>2021-07-31T19:28:52.248Z</time>
      </trkpt>
      <trkpt lat="47.500843" lon="7.933102">
        <ele>437.561566</ele>
        <time>2021-07-31T19:29:01.500Z</time>
      </trkpt>
      <trkpt lat="47.500990" lon="7.932950">
        <ele>437.439449</ele>
        <time>2021-07-31T19:29:03.966Z</time>
      </trkpt>
      <trkpt lat="47.501075" lon="7.932885">
        <ele>437.374293</ele>
        <time>2021-07-31T19:29:05.006Z</time>
      </trkpt>
      <trkpt lat="47.501463" lon="7.932668">
        <ele>437.091825</ele>
        <time>2021-07-31T19:29:10.006Z</time>
      </trkpt>
      <trkpt lat="47.501794" lon="7.932466">
        <ele>436.848000</ele>
        <time>2021-07-31T19:29:14.686Z</time>
      </trkpt>
      <trkpt lat="47.501901" lon="7.932351">
        <ele>436.757948</ele>
        <time>2021-07-31T19:29:16.733Z</time>
      </trkpt>
      <trkpt lat="47.502023" lon="7.932158">
        <ele>436.636344</ele>
        <time>2021-07-31T19:29:18.793Z</time>
      </trkpt>
      <trkpt lat="47.502130" lon="7.931903">
        <ele>436.471010</ele>
        <time>2021-07-31T19:29:21.562Z</time>
      </trkpt>
      <trkpt lat="47.502400" lon="7.931256">
        <ele>436.043354</ele>
        <time>2021-07-31T19:29:27.848Z</time>
      </trkpt>
      <trkpt lat="47.502613" lon="7.930856">
        <ele>435.756940</ele>
        <time>2021-07-31T19:29:31.936Z</time>
      </trkpt>
      <trkpt lat="47.502761" lon="7.930610">
        <ele>435.571699</ele>
        <time>2021-07-31T19:29:34.821Z</time>
      </trkpt>
      <trkpt lat="47.503014" lon="7.930220">
        <ele>435.267643</ele>
        <time>2021-07-31T19:29:39.558Z</time>
      </trkpt>
      <trkpt lat="47.503485" lon="7.929688">
        <ele>434.556063</ele>
        <time>2021-07-31T19:29:47.511Z</time>
      </trkpt>
      <trkpt lat="47.503528" lon="7.929650">
        <ele>434.488289</ele>
        <time>2021-07-31T19:29:47.998Z</time>
      </trkpt>
      <trkpt lat="47.503598" lon="7.929585">
        <ele>434.376462</ele>
        <time>2021-07-31T19:29:49.431Z</time>
      </trkpt>
      <trkpt lat="47.503815" lon="7.929426">
        <ele>434.048786</ele>
        <time>2021-07-31T19:29:52.156Z</time>
      </trkpt>
      <trkpt lat="47.504005" lon="7.929312">
        <ele>433.771338</ele>
        <time>2021-07-31T19:29:55.274Z</time>
      </trkpt>
      <trkpt lat="47.504650" lon="7.928941">
        <ele>432.834872</ele>
        <time>2021-07-31T19:30:03.247Z</time>
      </trkpt>
      <trkpt lat="47.504724" lon="7.928871">
        <ele>432.716026</ele>
        <time>2021-07-31T19:30:04.119Z</time>
      </trkpt>
      <trkpt lat="47.504799" lon="7.928777">
        <ele>432.417656</ele>
        <time>2021-07-31T19:30:05.018Z</time>
      </trkpt>
      <trkpt lat="47.505253" lon="7.928170">
        <ele>430.302276</ele>
        <time>2021-07-31T19:30:11.451Z</time>
      </trkpt>
      <trkpt lat="47.505814" lon="7.927657">
        <ele>428.022159</ele>
        <time>2021-07-31T19:30:17.863Z</time>
      </trkpt>
      <trkpt lat="47.505868" lon="7.927611">
        <ele>427.806727</ele>
        <time>2021-07-31T19:30:18.435Z</time>
      </trkpt>
      <trkpt lat="47.505881" lon="7.927601">
        <ele>427.756068</ele>
        <time>2021-07-31T19:30:18.571Z</time>
      </trkpt>
      <trkpt lat="47.506112" lon="7.927414">
        <ele>426.845674</ele>
        <time>2021-07-31T19:30:21.093Z</time>
      </trkpt>
      <trkpt lat="47.507856" lon="7.925990">
        <ele>420.896507</ele>
        <time>2021-07-31T19:30:41.587Z</time>
      </trkpt>
      <trkpt lat="47.508002" lon="7.925879">
        <ele>420.566368</ele>
        <time>2021-07-31T19:30:43.367Z</time>
      </trkpt>
      <trkpt lat="47.508106" lon="7.925799">
        <ele>420.330619</ele>
        <time>2021-07-31T19:30:44.722Z</time>
      </trkpt>
      <trkpt lat="47.508355" lon="7.925609">
        <ele>419.767144</ele>
        <time>2021-07-31T19:30:47.832Z</time>
      </trkpt>
      <trkpt lat="47.508667" lon="7.925295">
        <ele>419.008278</ele>
        <time>2021-07-31T19:30:52.025Z</time>
      </trkpt>
      <trkpt lat="47.509016" lon="7.924882">
        <ele>418.109558</ele>
        <time>2021-07-31T19:30:56.953Z</time>
      </trkpt>
      <trkpt lat="47.509032" lon="7.924863">
        <ele>418.068300</ele>
        <time>2021-07-31T19:30:57.179Z</time>
      </trkpt>
      <trkpt lat="47.509223" lon="7.924628">
        <ele>417.568747</ele>
        <time>2021-07-31T19:30:59.957Z</time>
      </trkpt>
      <trkpt lat="47.509572" lon="7.924311">
        <ele>416.892739</ele>
        <time>2021-07-31T19:31:04.587Z</time>
      </trkpt>
      <trkpt lat="47.509605" lon="7.924290">
        <ele>416.835653</ele>
        <time>2021-07-31T19:31:04.947Z</time>
      </trkpt>
      <trkpt lat="47.509676" lon="7.924247">
        <ele>416.713739</ele>
        <time>2021-07-31T19:31:05.818Z</time>
      </trkpt>
      <trkpt lat="47.509806" lon="7.924174">
        <ele>416.492771</ele>
        <time>2021-07-31T19:31:07.434Z</time>
      </trkpt>
      <trkpt lat="47.509886" lon="7.924134">
        <ele>416.358575</ele>
        <time>2021-07-31T19:31:08.423Z</time>
      </trkpt>
      <trkpt lat="47.510052" lon="7.924017">
        <ele>416.066385</ele>
        <time>2021-07-31T19:31:10.440Z</time>
      </trkpt>
      <trkpt lat="47.511001" lon="7.923070">
        <ele>414.392059</ele>
        <time>2021-07-31T19:31:23.704Z</time>
      </trkpt>
      <trkpt lat="47.511246" lon="7.922736">
        <ele>414.086259</ele>
        <time>2021-07-31T19:31:27.713Z</time>
      </trkpt>
      <trkpt lat="47.511415" lon="7.922417">
        <ele>413.834824</ele>
        <time>2021-07-31T19:31:31.095Z</time>
      </trkpt>
      <trkpt lat="47.511767" lon="7.921389">
        <ele>413.120032</ele>
        <time>2021-07-31T19:31:41.044Z</time>
      </trkpt>
      <trkpt lat="47.512197" lon="7.920511">
        <ele>412.663341</ele>
        <time>2021-07-31T19:31:50.651Z</time>
      </trkpt>
      <trkpt lat="47.512331" lon="7.920282">
        <ele>412.558089</ele>
        <time>2021-07-31T19:31:53.515Z</time>
      </trkpt>
      <trkpt lat="47.512556" lon="7.919960">
        <ele>412.397144</ele>
        <time>2021-07-31T19:31:57.729Z</time>
      </trkpt>
      <trkpt lat="47.512905" lon="7.919578">
        <ele>412.173922</ele>
        <time>2021-07-31T19:32:03.665Z</time>
      </trkpt>
      <trkpt lat="47.514270" lon="7.918422">
        <ele>410.806552</ele>
        <time>2021-07-31T19:32:23.664Z</time>
      </trkpt>
      <trkpt lat="47.515086" lon="7.917919">
        <ele>409.565265</ele>
        <time>2021-07-31T19:32:33.916Z</time>
      </trkpt>
      <trkpt lat="47.515613" lon="7.917513">
        <ele>408.317073</ele>
        <time>2021-07-31T19:32:40.504Z</time>
      </trkpt>
      <trkpt lat="47.516287" lon="7.916882">
        <ele>406.641605</ele>
        <time>2021-07-31T19:32:48.865Z</time>
      </trkpt>
      <trkpt lat="47.516946" lon="7.916165">
        <ele>404.829305</ele>
        <time>2021-07-31T19:32:57.582Z</time>
      </trkpt>
      <trkpt lat="47.517038" lon="7.916039">
        <ele>404.550400</ele>
        <time>2021-07-31T19:32:58.887Z</time>
      </trkpt>
      <trkpt lat="47.517140" lon="7.915867">
        <ele>404.206358</ele>
        <time>2021-07-31T19:33:00.575Z</time>
      </trkpt>
      <trkpt lat="47.517976" lon="7.914148">
        <ele>401.486264</ele>
        <time>2021-07-31T19:33:16.352Z</time>
      </trkpt>
      <trkpt lat="47.518033" lon="7.914054">
        <ele>401.355637</ele>
        <time>2021-07-31T19:33:17.323Z</time>
      </trkpt>
      <trkpt lat="47.518820" lon="7.913091">
        <ele>399.792499</ele>
        <time>2021-07-31T19:33:34.771Z</time>
      </trkpt>
      <trkpt lat="47.519055" lon="7.912811">
        <ele>399.350058</ele>
        <time>2021-07-31T19:33:39.922Z</time>
      </trkpt>
      <trkpt lat="47.519183" lon="7.912644">
        <ele>399.100790</ele>
        <time>2021-07-31T19:33:42.529Z</time>
      </trkpt>
      <trkpt lat="47.519645" lon="7.911898">
        <ele>398.102008</ele>
        <time>2021-07-31T19:33:53.878Z</time>
      </trkpt>
      <trkpt lat="47.519921" lon="7.911269">
        <ele>397.361832</ele>
        <time>2021-07-31T19:34:02.257Z</time>
      </trkpt>
      <trkpt lat="47.519956" lon="7.911165">
        <ele>397.247173</ele>
        <time>2021-07-31T19:34:03.631Z</time>
      </trkpt>
      <trkpt lat="47.520007" lon="7.911009">
        <ele>397.073115</ele>
        <time>2021-07-31T19:34:05.666Z</time>
      </trkpt>
      <trkpt lat="47.520025" lon="7.910953">
        <ele>397.008255</ele>
        <time>2021-07-31T19:34:06.227Z</time>
      </trkpt>
      <trkpt lat="47.520698" lon="7.908161">
        <ele>393.675580</ele>
        <time>2021-07-31T19:34:39.305Z</time>
      </trkpt>
      <trkpt lat="47.520749" lon="7.908027">
        <ele>393.428509</ele>
        <time>2021-07-31T19:34:41.209Z</time>
      </trkpt>
      <trkpt lat="47.520794" lon="7.907911">
        <ele>393.213626</ele>
        <time>2021-07-31T19:34:42.089Z</time>
      </trkpt>
      <trkpt lat="47.521519" lon="7.906389">
        <ele>390.221898</ele>
        <time>2021-07-31T19:34:55.385Z</time>
      </trkpt>
      <trkpt lat="47.521825" lon="7.905747">
        <ele>388.634689</ele>
        <time>2021-07-31T19:35:00.778Z</time>
      </trkpt>
      <trkpt lat="47.523266" lon="7.903337">
        <ele>382.103783</ele>
        <time>2021-07-31T19:35:22.958Z</time>
      </trkpt>
      <trkpt lat="47.523596" lon="7.902876">
        <ele>380.794510</ele>
        <time>2021-07-31T19:35:27.698Z</time>
      </trkpt>
      <trkpt lat="47.523736" lon="7.902614">
        <ele>380.143387</ele>
        <time>2021-07-31T19:35:30.032Z</time>
      </trkpt>
      <trkpt lat="47.524053" lon="7.902011">
        <ele>378.829866</ele>
        <time>2021-07-31T19:35:35.474Z</time>
      </trkpt>
      <trkpt lat="47.524105" lon="7.901935">
        <ele>378.673471</ele>
        <time>2021-07-31T19:35:37.722Z</time>
      </trkpt>
      <trkpt lat="47.524233" lon="7.901684">
        <ele>378.218809</ele>
        <time>2021-07-31T19:35:44.204Z</time>
      </trkpt>
      <trkpt lat="47.524247" lon="7.901656">
        <ele>378.168447</ele>
        <time>2021-07-31T19:35:44.927Z</time>
      </trkpt>
      <trkpt lat="47.524421" lon="7.901321">
        <ele>377.557523</ele>
        <time>2021-07-31T19:35:53.714Z</time>
      </trkpt>
      <trkpt lat="47.524527" lon="7.901116">
        <ele>377.184298</ele>
        <time>2021-07-31T19:35:59.085Z</time>
      </trkpt>
      <trkpt lat="47.524581" lon="7.901010">
        <ele>376.992362</ele>
        <time>2021-07-31T19:36:00.030Z</time>
      </trkpt>
      <trkpt lat="47.525195" lon="7.899847">
        <ele>375.137612</ele>
        <time>2021-07-31T19:36:11.377Z</time>
      </trkpt>
      <trkpt lat="47.525500" lon="7.899228">
        <ele>374.523956</ele>
        <time>2021-07-31T19:36:17.401Z</time>
      </trkpt>
      <trkpt lat="47.525605" lon="7.899006">
        <ele>374.306898</ele>
        <time>2021-07-31T19:36:19.700Z</time>
      </trkpt>
      <trkpt lat="47.525734" lon="7.898704">
        <ele>374.020721</ele>
        <time>2021-07-31T19:36:22.594Z</time>
      </trkpt>
      <trkpt lat="47.525783" lon="7.898584">
        <ele>373.908418</ele>
        <time>2021-07-31T19:36:23.840Z</time>
      </trkpt>
      <trkpt lat="47.525839" lon="7.898443">
        <ele>373.777418</ele>
        <time>2021-07-31T19:36:25.139Z</time>
      </trkpt>
      <trkpt lat="47.526238" lon="7.897258">
        <ele>372.969688</ele>
        <time>2021-07-31T19:36:36.538Z</time>
      </trkpt>
      <trkpt lat="47.526559" lon="7.895723">
        <ele>372.195463</ele>
        <time>2021-07-31T19:36:50.508Z</time>
      </trkpt>
      <trkpt lat="47.526565" lon="7.895692">
        <ele>372.179925</ele>
        <time>2021-07-31T19:36:50.758Z</time>
      </trkpt>
      <trkpt lat="47.526589" lon="7.895591">
        <ele>372.128338</ele>
        <time>2021-07-31T19:36:51.719Z</time>
      </trkpt>
      <trkpt lat="47.526615" lon="7.895508">
        <ele>372.084255</ele>
        <time>2021-07-31T19:36:52.567Z</time>
      </trkpt>
      <trkpt lat="47.526684" lon="7.895312">
        <ele>371.978580</ele>
        <time>2021-07-31T19:36:54.436Z</time>
      </trkpt>
      <trkpt lat="47.526716" lon="7.895243">
        <ele>371.938617</ele>
        <time>2021-07-31T19:36:55.184Z</time>
      </trkpt>
      <trkpt lat="47.526767" lon="7.895145">
        <ele>371.879548</ele>
        <time>2021-07-31T19:36:56.255Z</time>
      </trkpt>
      <trkpt lat="47.526858" lon="7.894982">
        <ele>371.778578</ele>
        <time>2021-07-31T19:36:58.096Z</time>
      </trkpt>
      <trkpt lat="47.527021" lon="7.894751">
        <ele>371.619068</ele>
        <time>2021-07-31T19:37:00.976Z</time>
      </trkpt>
      <trkpt lat="47.527340" lon="7.894491">
        <ele>371.361629</ele>
        <time>2021-07-31T19:37:05.644Z</time>
      </trkpt>
      <trkpt lat="47.527746" lon="7.894239">
        <ele>371.050388</ele>
        <time>2021-07-31T19:37:11.295Z</time>
      </trkpt>
      <trkpt lat="47.527849" lon="7.894151">
        <ele>370.966316</ele>
        <time>2021-07-31T19:37:12.737Z</time>
      </trkpt>
      <trkpt lat="47.528348" lon="7.893564">
        <ele>370.385490</ele>
        <time>2021-07-31T19:37:20.931Z</time>
      </trkpt>
      <trkpt lat="47.528729" lon="7.893229">
        <ele>369.926732</ele>
        <time>2021-07-31T19:37:26.453Z</time>
      </trkpt>
      <trkpt lat="47.529904" lon="7.892770">
        <ele>368.533263</ele>
        <time>2021-07-31T19:37:40.885Z</time>
      </trkpt>
      <trkpt lat="47.530382" lon="7.892408">
        <ele>367.694067</ele>
        <time>2021-07-31T19:37:46.962Z</time>
      </trkpt>
      <trkpt lat="47.530590" lon="7.892213">
        <ele>367.309271</ele>
        <time>2021-07-31T19:37:49.750Z</time>
      </trkpt>
      <trkpt lat="47.531142" lon="7.891658">
        <ele>366.266380</ele>
        <time>2021-07-31T19:37:57.244Z</time>
      </trkpt>
      <trkpt lat="47.531230" lon="7.891551">
        <ele>366.094955</ele>
        <time>2021-07-31T19:37:58.573Z</time>
      </trkpt>
      <trkpt lat="47.531750" lon="7.890821">
        <ele>365.190139</ele>
        <time>2021-07-31T19:38:06.964Z</time>
      </trkpt>
      <trkpt lat="47.531801" lon="7.890722">
        <ele>365.083960</ele>
        <time>2021-07-31T19:38:07.932Z</time>
      </trkpt>
      <trkpt lat="47.531882" lon="7.890580">
        <ele>364.925455</ele>
        <time>2021-07-31T19:38:09.543Z</time>
      </trkpt>
      <trkpt lat="47.532109" lon="7.890107">
        <ele>364.430642</ele>
        <time>2021-07-31T19:38:14.289Z</time>
      </trkpt>
      <trkpt lat="47.532138" lon="7.890043">
        <ele>364.364921</ele>
        <time>2021-07-31T19:38:14.879Z</time>
      </trkpt>
      <trkpt lat="47.532183" lon="7.889944">
        <ele>364.263161</ele>
        <time>2021-07-31T19:38:15.856Z</time>
      </trkpt>
      <trkpt lat="47.532545" lon="7.888809">
        <ele>363.488187</ele>
        <time>2021-07-31T19:38:25.936Z</time>
      </trkpt>
      <trkpt lat="47.532777" lon="7.888012">
        <ele>363.080216</ele>
        <time>2021-07-31T19:38:33.902Z</time>
      </trkpt>
      <trkpt lat="47.533028" lon="7.887167">
        <ele>362.646279</ele>
        <time>2021-07-31T19:38:42.401Z</time>
      </trkpt>
      <trkpt lat="47.533320" lon="7.886217">
        <ele>362.131683</ele>
        <time>2021-07-31T19:38:51.270Z</time>
      </trkpt>
      <trkpt lat="47.533339" lon="7.886156">
        <ele>362.098399</ele>
        <time>2021-07-31T19:38:51.834Z</time>
      </trkpt>
      <trkpt lat="47.533541" lon="7.885448">
        <ele>361.717585</ele>
        <time>2021-07-31T19:38:58.547Z</time>
      </trkpt>
      <trkpt lat="47.533746" lon="7.884696">
        <ele>361.315782</ele>
        <time>2021-07-31T19:39:05.588Z</time>
      </trkpt>
      <trkpt lat="47.534057" lon="7.883509">
        <ele>360.449117</ele>
        <time>2021-07-31T19:39:16.064Z</time>
      </trkpt>
      <trkpt lat="47.534289" lon="7.882849">
        <ele>359.934079</ele>
        <time>2021-07-31T19:39:21.797Z</time>
      </trkpt>
      <trkpt lat="47.534829" lon="7.881516">
        <ele>359.188319</ele>
        <time>2021-07-31T19:39:35.375Z</time>
      </trkpt>
      <trkpt lat="47.535261" lon="7.880868">
        <ele>358.918834</ele>
        <time>2021-07-31T19:39:44.100Z</time>
      </trkpt>
      <trkpt lat="47.535301" lon="7.880830">
        <ele>358.898006</ele>
        <time>2021-07-31T19:39:44.655Z</time>
      </trkpt>
      <trkpt lat="47.535358" lon="7.880775">
        <ele>358.868189</ele>
        <time>2021-07-31T19:39:46.018Z</time>
      </trkpt>
      <trkpt lat="47.536321" lon="7.880046">
        <ele>358.922281</ele>
        <time>2021-07-31T19:40:00.339Z</time>
      </trkpt>
      <trkpt lat="47.536438" lon="7.879933">
        <ele>358.989145</ele>
        <time>2021-07-31T19:40:02.463Z</time>
      </trkpt>
      <trkpt lat="47.536535" lon="7.879824">
        <ele>359.047430</ele>
        <time>2021-07-31T19:40:03.838Z</time>
      </trkpt>
      <trkpt lat="47.536958" lon="7.879251">
        <ele>359.321835</ele>
        <time>2021-07-31T19:40:12.834Z</time>
      </trkpt>
      <trkpt lat="47.537228" lon="7.878774">
        <ele>359.694251</ele>
        <time>2021-07-31T19:40:21.611Z</time>
      </trkpt>
      <trkpt lat="47.537396" lon="7.878566">
        <ele>360.965589</ele>
        <time>2021-07-31T19:40:28.130Z</time>
      </trkpt>
      <trkpt lat="47.537938" lon="7.877681">
        <ele>365.649424</ele>
        <time>2021-07-31T19:41:01.310Z</time>
      </trkpt>
      <trkpt lat="47.538104" lon="7.877451">
        <ele>366.969205</ele>
        <time>2021-07-31T19:41:10.495Z</time>
      </trkpt>
      <trkpt lat="47.538104" lon="7.877451">
        <ele>366.969205</ele>
        <time>2021-07-31T19:41:10.617Z</time>
      </trkpt>
      <trkpt lat="47.538129" lon="7.877585">
        <ele>367.514152</ele>
        <time>2021-07-31T19:41:17.182Z</time>
      </trkpt>
      <trkpt lat="47.538192" lon="7.878065">
        <ele>369.430901</ele>
        <time>2021-07-31T19:41:33.453Z</time>
      </trkpt>
      <trkpt lat="47.538188" lon="7.878412">
        <ele>371.223552</ele>
        <time>2021-07-31T19:41:42.999Z</time>
      </trkpt>
      <trkpt lat="47.538190" lon="7.878583">
        <ele>372.238860</ele>
        <time>2021-07-31T19:41:51.162Z</time>
      </trkpt>
      <trkpt lat="47.538171" lon="7.878782">
        <ele>373.431997</ele>
        <time>2021-07-31T19:41:57.896Z</time>
      </trkpt>
      <trkpt lat="47.538139" lon="7.879007">
        <ele>374.797049</ele>
        <time>2021-07-31T19:42:04.702Z</time>
      </trkpt>
      <trkpt lat="47.538093" lon="7.879247">
        <ele>376.278140</ele>
        <time>2021-07-31T19:42:17.028Z</time>
      </trkpt>
      <trkpt lat="47.537884" lon="7.880001">
        <ele>381.116959</ele>
        <time>2021-07-31T19:42:46.157Z</time>
      </trkpt>
      <trkpt lat="47.537571" lon="7.880811">
        <ele>386.065414</ele>
        <time>2021-07-31T19:43:15.865Z</time>
      </trkpt>
      <trkpt lat="47.537401" lon="7.881215">
        <ele>387.010734</ele>
        <time>2021-07-31T19:43:27.911Z</time>
      </trkpt>
      <trkpt lat="47.537401" lon="7.881215">
        <ele>387.010734</ele>
        <time>2021-07-31T19:43:28.107Z</time>
      </trkpt>
      <trkpt lat="47.537401" lon="7.881215">
        <ele>387.010734</ele>
        <time>2021-07-31T19:43:28.122Z</time>
      </trkpt>
      <trkpt lat="47.537514" lon="7.881244">
        <ele>387.348062</ele>
        <time>2021-07-31T19:43:31.917Z</time>
      </trkpt>
      <trkpt lat="47.537578" lon="7.881226">
        <ele>387.539674</ele>
        <time>2021-07-31T19:43:34.052Z</time>
      </trkpt>
      <trkpt lat="47.538134" lon="7.880535">
        <ele>389.674468</ele>
        <time>2021-07-31T19:43:55.637Z</time>
      </trkpt>
      <trkpt lat="47.539052" lon="7.878861">
        <ele>390.438629</ele>
        <time>2021-07-31T19:44:23.317Z</time>
      </trkpt>
      <trkpt lat="47.539304" lon="7.878400">
        <ele>390.186854</ele>
        <time>2021-07-31T19:44:30.020Z</time>
      </trkpt>
      <trkpt lat="47.539459" lon="7.878208">
        <ele>390.059817</ele>
        <time>2021-07-31T19:44:33.467Z</time>
      </trkpt>
      <trkpt lat="47.539868" lon="7.877610">
        <ele>389.908152</ele>
        <time>2021-07-31T19:44:43.566Z</time>
      </trkpt>
      <trkpt lat="47.540200" lon="7.876974">
        <ele>389.879469</ele>
        <time>2021-07-31T19:44:53.470Z</time>
      </trkpt>
      <trkpt lat="47.540295" lon="7.876823">
        <ele>389.872105</ele>
        <time>2021-07-31T19:44:56.177Z</time>
      </trkpt>
      <trkpt lat="47.540714" lon="7.876295">
        <ele>389.843033</ele>
        <time>2021-07-31T19:45:07.308Z</time>
      </trkpt>
      <trkpt lat="47.541610" lon="7.875579">
        <ele>389.832336</ele>
        <time>2021-07-31T19:45:35.654Z</time>
      </trkpt>
      <trkpt lat="47.541879" lon="7.875190">
        <ele>389.832336</ele>
        <time>2021-07-31T19:45:48.128Z</time>
      </trkpt>
      <trkpt lat="47.541957" lon="7.875166">
        <ele>389.832336</ele>
        <time>2021-07-31T19:45:50.908Z</time>
      </trkpt>
      <trkpt lat="47.542255" lon="7.875082">
        <ele>389.832336</ele>
        <time>2021-07-31T19:46:00.988Z</time>
      </trkpt>
      <trkpt lat="47.542464" lon="7.875000">
        <ele>389.832336</ele>
        <time>2021-07-31T19:46:08.077Z</time>
      </trkpt>
      <trkpt lat="47.542853" lon="7.874570">
        <ele>389.832336</ele>
        <time>2021-07-31T19:46:24.073Z</time>
      </trkpt>
      <trkpt lat="47.543050" lon="7.874494">
        <ele>389.832336</ele>
        <time>2021-07-31T19:46:30.738Z</time>
      </trkpt>
      <trkpt lat="47.543257" lon="7.874521">
        <ele>389.832336</ele>
        <time>2021-07-31T19:46:37.592Z</time>
      </trkpt>
    </trkseg>
  </trk>
</gpx>